<?xml version="1.0" encoding="UTF-8" standalone="no" ?>
<gpx xmlns="http://www.topografix.com/GPX/1/1" xmlns:xsi="http://www.w3.org/2001/XMLSchema-instance" xsi:schemaLocation="http://www.topografix.com/GPX/1/1 http://www.topografix.com/GPX/1/1/gpx.xsd" version="1.1" creator="VisuGPX - https://www.visugpx.com">
  <metadata>
    <name>CHAMBOEUF SUR LES HAUTEURS</name>
    <desc><![CDATA[Beaux parcours avec pose au refuge de Chamerey.
Village de Chamboeuf très accueillant avec pour les randonneurs une salle avec table et sanitaire félicitation à la municipalité et à son Maire d'autre commune devrait en prendre exemple.]]></desc>
  </metadata>
  <trk>
    <name><![CDATA[2018-03-20-01]]></name>
    <trkseg>
      <trkpt lat="47.23062" lon="4.90632">
        <ele>503.5</ele>
        <time>2018-03-20T12:51:27Z</time>
      </trkpt>
      <trkpt lat="47.23066" lon="4.90621">
        <ele>501.3</ele>
        <time>2018-03-20T12:51:28Z</time>
      </trkpt>
      <trkpt lat="47.23068" lon="4.90623">
        <ele>501.7</ele>
        <time>2018-03-20T12:52:23Z</time>
      </trkpt>
      <trkpt lat="47.23058" lon="4.90621">
        <ele>499.9</ele>
        <time>2018-03-20T12:59:45Z</time>
      </trkpt>
      <trkpt lat="47.23049" lon="4.90618">
        <ele>498.3</ele>
        <time>2018-03-20T12:59:53Z</time>
      </trkpt>
      <trkpt lat="47.23045" lon="4.90606">
        <ele>497.4</ele>
        <time>2018-03-20T13:00:05Z</time>
      </trkpt>
      <trkpt lat="47.23048" lon="4.90593">
        <ele>497.8</ele>
        <time>2018-03-20T13:00:15Z</time>
      </trkpt>
      <trkpt lat="47.23049" lon="4.90578">
        <ele>497.7</ele>
        <time>2018-03-20T13:00:23Z</time>
      </trkpt>
      <trkpt lat="47.23048" lon="4.90564">
        <ele>497.4</ele>
        <time>2018-03-20T13:00:30Z</time>
      </trkpt>
      <trkpt lat="47.23049" lon="4.90551">
        <ele>497.5</ele>
        <time>2018-03-20T13:01:39Z</time>
      </trkpt>
      <trkpt lat="47.23055" lon="4.90539">
        <ele>498.6</ele>
        <time>2018-03-20T13:02:16Z</time>
      </trkpt>
      <trkpt lat="47.23062" lon="4.90529">
        <ele>499.8</ele>
        <time>2018-03-20T13:02:24Z</time>
      </trkpt>
      <trkpt lat="47.2307" lon="4.90521">
        <ele>501.4</ele>
        <time>2018-03-20T13:02:34Z</time>
      </trkpt>
      <trkpt lat="47.23078" lon="4.90515">
        <ele>503</ele>
        <time>2018-03-20T13:02:47Z</time>
      </trkpt>
      <trkpt lat="47.23083" lon="4.90503">
        <ele>503.9</ele>
        <time>2018-03-20T13:03:10Z</time>
      </trkpt>
      <trkpt lat="47.23081" lon="4.90491">
        <ele>503.6</ele>
        <time>2018-03-20T13:05:26Z</time>
      </trkpt>
      <trkpt lat="47.23077" lon="4.90479">
        <ele>503.1</ele>
        <time>2018-03-20T13:06:43Z</time>
      </trkpt>
      <trkpt lat="47.23082" lon="4.90468">
        <ele>504.6</ele>
        <time>2018-03-20T13:14:00Z</time>
      </trkpt>
      <trkpt lat="47.23081" lon="4.90471">
        <ele>504.2</ele>
        <time>2018-03-20T13:17:12Z</time>
      </trkpt>
      <trkpt lat="47.23078" lon="4.90486">
        <ele>503.3</ele>
        <time>2018-03-20T13:20:24Z</time>
      </trkpt>
      <trkpt lat="47.23085" lon="4.90494">
        <ele>504.5</ele>
        <time>2018-03-20T13:20:42Z</time>
      </trkpt>
      <trkpt lat="47.23093" lon="4.90487">
        <ele>506</ele>
        <time>2018-03-20T13:20:50Z</time>
      </trkpt>
      <trkpt lat="47.23101" lon="4.90478">
        <ele>507.4</ele>
        <time>2018-03-20T13:20:58Z</time>
      </trkpt>
      <trkpt lat="47.23109" lon="4.9047">
        <ele>508.6</ele>
        <time>2018-03-20T13:21:06Z</time>
      </trkpt>
      <trkpt lat="47.23115" lon="4.90461">
        <ele>509.7</ele>
        <time>2018-03-20T13:21:14Z</time>
      </trkpt>
      <trkpt lat="47.23123" lon="4.90451">
        <ele>510.7</ele>
        <time>2018-03-20T13:21:20Z</time>
      </trkpt>
      <trkpt lat="47.23133" lon="4.90444">
        <ele>511.8</ele>
        <time>2018-03-20T13:22:54Z</time>
      </trkpt>
      <trkpt lat="47.23142" lon="4.9044">
        <ele>513</ele>
        <time>2018-03-20T13:23:02Z</time>
      </trkpt>
      <trkpt lat="47.23151" lon="4.90437">
        <ele>514</ele>
        <time>2018-03-20T13:23:14Z</time>
      </trkpt>
      <trkpt lat="47.23158" lon="4.90428">
        <ele>514.5</ele>
        <time>2018-03-20T13:23:25Z</time>
      </trkpt>
      <trkpt lat="47.2316" lon="4.90415">
        <ele>514</ele>
        <time>2018-03-20T13:23:39Z</time>
      </trkpt>
      <trkpt lat="47.23161" lon="4.904">
        <ele>512.7</ele>
        <time>2018-03-20T13:23:52Z</time>
      </trkpt>
      <trkpt lat="47.23167" lon="4.90388">
        <ele>511.9</ele>
        <time>2018-03-20T13:24:04Z</time>
      </trkpt>
      <trkpt lat="47.23173" lon="4.90376">
        <ele>510.1</ele>
        <time>2018-03-20T13:24:12Z</time>
      </trkpt>
      <trkpt lat="47.23175" lon="4.90363">
        <ele>508.2</ele>
        <time>2018-03-20T13:24:23Z</time>
      </trkpt>
      <trkpt lat="47.23179" lon="4.90351">
        <ele>506.2</ele>
        <time>2018-03-20T13:24:40Z</time>
      </trkpt>
      <trkpt lat="47.23184" lon="4.90339">
        <ele>504.2</ele>
        <time>2018-03-20T13:24:54Z</time>
      </trkpt>
      <trkpt lat="47.23193" lon="4.90333">
        <ele>502.2</ele>
        <time>2018-03-20T13:25:05Z</time>
      </trkpt>
      <trkpt lat="47.23201" lon="4.90328">
        <ele>500.4</ele>
        <time>2018-03-20T13:25:14Z</time>
      </trkpt>
      <trkpt lat="47.23211" lon="4.90323">
        <ele>498.5</ele>
        <time>2018-03-20T13:26:26Z</time>
      </trkpt>
      <trkpt lat="47.23221" lon="4.90325">
        <ele>497.1</ele>
        <time>2018-03-20T13:26:30Z</time>
      </trkpt>
      <trkpt lat="47.23229" lon="4.90332">
        <ele>496.8</ele>
        <time>2018-03-20T13:26:36Z</time>
      </trkpt>
      <trkpt lat="47.23239" lon="4.90338">
        <ele>496.4</ele>
        <time>2018-03-20T13:26:38Z</time>
      </trkpt>
      <trkpt lat="47.23249" lon="4.90341">
        <ele>495.7</ele>
        <time>2018-03-20T13:26:44Z</time>
      </trkpt>
      <trkpt lat="47.23257" lon="4.90348">
        <ele>495.9</ele>
        <time>2018-03-20T13:26:53Z</time>
      </trkpt>
      <trkpt lat="47.23265" lon="4.90355">
        <ele>496.1</ele>
        <time>2018-03-20T13:27:00Z</time>
      </trkpt>
      <trkpt lat="47.23273" lon="4.9036">
        <ele>496</ele>
        <time>2018-03-20T13:27:13Z</time>
      </trkpt>
      <trkpt lat="47.23283" lon="4.90367">
        <ele>495.8</ele>
        <time>2018-03-20T13:27:23Z</time>
      </trkpt>
      <trkpt lat="47.23292" lon="4.9037">
        <ele>495.2</ele>
        <time>2018-03-20T13:27:28Z</time>
      </trkpt>
      <trkpt lat="47.233" lon="4.90377">
        <ele>495.3</ele>
        <time>2018-03-20T13:27:36Z</time>
      </trkpt>
      <trkpt lat="47.2331" lon="4.90381">
        <ele>494.4</ele>
        <time>2018-03-20T13:27:55Z</time>
      </trkpt>
      <trkpt lat="47.2332" lon="4.90384">
        <ele>493.6</ele>
        <time>2018-03-20T13:28:03Z</time>
      </trkpt>
      <trkpt lat="47.2333" lon="4.90389">
        <ele>492.7</ele>
        <time>2018-03-20T13:28:10Z</time>
      </trkpt>
      <trkpt lat="47.23339" lon="4.90393">
        <ele>492.1</ele>
        <time>2018-03-20T13:28:18Z</time>
      </trkpt>
      <trkpt lat="47.23349" lon="4.90396">
        <ele>491.2</ele>
        <time>2018-03-20T13:28:26Z</time>
      </trkpt>
      <trkpt lat="47.23357" lon="4.90399">
        <ele>490.2</ele>
        <time>2018-03-20T13:28:34Z</time>
      </trkpt>
      <trkpt lat="47.23367" lon="4.90401">
        <ele>489.1</ele>
        <time>2018-03-20T13:28:43Z</time>
      </trkpt>
      <trkpt lat="47.23376" lon="4.90403">
        <ele>487.7</ele>
        <time>2018-03-20T13:28:53Z</time>
      </trkpt>
      <trkpt lat="47.23385" lon="4.90406">
        <ele>486.4</ele>
        <time>2018-03-20T13:29:02Z</time>
      </trkpt>
      <trkpt lat="47.23395" lon="4.9041">
        <ele>485.4</ele>
        <time>2018-03-20T13:29:12Z</time>
      </trkpt>
      <trkpt lat="47.23404" lon="4.90413">
        <ele>484</ele>
        <time>2018-03-20T13:29:19Z</time>
      </trkpt>
      <trkpt lat="47.23413" lon="4.90415">
        <ele>482.6</ele>
        <time>2018-03-20T13:29:26Z</time>
      </trkpt>
      <trkpt lat="47.23423" lon="4.90419">
        <ele>481.9</ele>
        <time>2018-03-20T13:29:35Z</time>
      </trkpt>
      <trkpt lat="47.23432" lon="4.90423">
        <ele>482</ele>
        <time>2018-03-20T13:29:44Z</time>
      </trkpt>
      <trkpt lat="47.23441" lon="4.90426">
        <ele>482</ele>
        <time>2018-03-20T13:29:52Z</time>
      </trkpt>
      <trkpt lat="47.23451" lon="4.90427">
        <ele>481.7</ele>
        <time>2018-03-20T13:29:59Z</time>
      </trkpt>
      <trkpt lat="47.2346" lon="4.90429">
        <ele>481.4</ele>
        <time>2018-03-20T13:30:07Z</time>
      </trkpt>
      <trkpt lat="47.23469" lon="4.90431">
        <ele>481</ele>
        <time>2018-03-20T13:30:16Z</time>
      </trkpt>
      <trkpt lat="47.23479" lon="4.90433">
        <ele>480.7</ele>
        <time>2018-03-20T13:30:25Z</time>
      </trkpt>
      <trkpt lat="47.23488" lon="4.90434">
        <ele>480.2</ele>
        <time>2018-03-20T13:30:33Z</time>
      </trkpt>
      <trkpt lat="47.23498" lon="4.90438">
        <ele>479.9</ele>
        <time>2018-03-20T13:30:42Z</time>
      </trkpt>
      <trkpt lat="47.23507" lon="4.9044">
        <ele>479.5</ele>
        <time>2018-03-20T13:30:51Z</time>
      </trkpt>
      <trkpt lat="47.23516" lon="4.90443">
        <ele>479</ele>
        <time>2018-03-20T13:30:59Z</time>
      </trkpt>
      <trkpt lat="47.23526" lon="4.90444">
        <ele>478.5</ele>
        <time>2018-03-20T13:31:07Z</time>
      </trkpt>
      <trkpt lat="47.23535" lon="4.90444">
        <ele>478</ele>
        <time>2018-03-20T13:31:15Z</time>
      </trkpt>
      <trkpt lat="47.23545" lon="4.90448">
        <ele>477.5</ele>
        <time>2018-03-20T13:31:24Z</time>
      </trkpt>
      <trkpt lat="47.23555" lon="4.90449">
        <ele>477</ele>
        <time>2018-03-20T13:31:34Z</time>
      </trkpt>
      <trkpt lat="47.23565" lon="4.9045">
        <ele>476.4</ele>
        <time>2018-03-20T13:31:43Z</time>
      </trkpt>
      <trkpt lat="47.23576" lon="4.90452">
        <ele>475.9</ele>
        <time>2018-03-20T13:31:52Z</time>
      </trkpt>
      <trkpt lat="47.23585" lon="4.90454">
        <ele>475.5</ele>
        <time>2018-03-20T13:31:59Z</time>
      </trkpt>
      <trkpt lat="47.23594" lon="4.90457">
        <ele>475.7</ele>
        <time>2018-03-20T13:32:08Z</time>
      </trkpt>
      <trkpt lat="47.23604" lon="4.90458">
        <ele>476</ele>
        <time>2018-03-20T13:32:15Z</time>
      </trkpt>
      <trkpt lat="47.23614" lon="4.90459">
        <ele>476.2</ele>
        <time>2018-03-20T13:32:23Z</time>
      </trkpt>
      <trkpt lat="47.23624" lon="4.90461">
        <ele>476.5</ele>
        <time>2018-03-20T13:32:30Z</time>
      </trkpt>
      <trkpt lat="47.23634" lon="4.90462">
        <ele>476.8</ele>
        <time>2018-03-20T13:32:39Z</time>
      </trkpt>
      <trkpt lat="47.23644" lon="4.90462">
        <ele>477.1</ele>
        <time>2018-03-20T13:32:48Z</time>
      </trkpt>
      <trkpt lat="47.23651" lon="4.90455">
        <ele>477</ele>
        <time>2018-03-20T13:32:55Z</time>
      </trkpt>
      <trkpt lat="47.23654" lon="4.90441">
        <ele>476.6</ele>
        <time>2018-03-20T13:33:03Z</time>
      </trkpt>
      <trkpt lat="47.23654" lon="4.90427">
        <ele>476.2</ele>
        <time>2018-03-20T13:33:10Z</time>
      </trkpt>
      <trkpt lat="47.23654" lon="4.90414">
        <ele>475.7</ele>
        <time>2018-03-20T13:33:18Z</time>
      </trkpt>
      <trkpt lat="47.23654" lon="4.90399">
        <ele>475.2</ele>
        <time>2018-03-20T13:33:26Z</time>
      </trkpt>
      <trkpt lat="47.23655" lon="4.90386">
        <ele>474.8</ele>
        <time>2018-03-20T13:33:34Z</time>
      </trkpt>
      <trkpt lat="47.23655" lon="4.90371">
        <ele>474.3</ele>
        <time>2018-03-20T13:33:42Z</time>
      </trkpt>
      <trkpt lat="47.23656" lon="4.90358">
        <ele>473.8</ele>
        <time>2018-03-20T13:33:50Z</time>
      </trkpt>
      <trkpt lat="47.23656" lon="4.90344">
        <ele>473.4</ele>
        <time>2018-03-20T13:33:58Z</time>
      </trkpt>
      <trkpt lat="47.23657" lon="4.90331">
        <ele>472.9</ele>
        <time>2018-03-20T13:34:05Z</time>
      </trkpt>
      <trkpt lat="47.23655" lon="4.90317">
        <ele>472.7</ele>
        <time>2018-03-20T13:34:13Z</time>
      </trkpt>
      <trkpt lat="47.23653" lon="4.90303">
        <ele>472.5</ele>
        <time>2018-03-20T13:34:21Z</time>
      </trkpt>
      <trkpt lat="47.23652" lon="4.9029">
        <ele>472.2</ele>
        <time>2018-03-20T13:34:28Z</time>
      </trkpt>
      <trkpt lat="47.23651" lon="4.90276">
        <ele>471.9</ele>
        <time>2018-03-20T13:34:37Z</time>
      </trkpt>
      <trkpt lat="47.2365" lon="4.90261">
        <ele>471.6</ele>
        <time>2018-03-20T13:34:45Z</time>
      </trkpt>
      <trkpt lat="47.23649" lon="4.90246">
        <ele>471.3</ele>
        <time>2018-03-20T13:34:54Z</time>
      </trkpt>
      <trkpt lat="47.23649" lon="4.90232">
        <ele>471.1</ele>
        <time>2018-03-20T13:35:03Z</time>
      </trkpt>
      <trkpt lat="47.23649" lon="4.90218">
        <ele>470.8</ele>
        <time>2018-03-20T13:35:11Z</time>
      </trkpt>
      <trkpt lat="47.23649" lon="4.90205">
        <ele>470.6</ele>
        <time>2018-03-20T13:35:19Z</time>
      </trkpt>
      <trkpt lat="47.23649" lon="4.9019">
        <ele>470.4</ele>
        <time>2018-03-20T13:35:27Z</time>
      </trkpt>
      <trkpt lat="47.23651" lon="4.90176">
        <ele>470.2</ele>
        <time>2018-03-20T13:35:34Z</time>
      </trkpt>
      <trkpt lat="47.23652" lon="4.90163">
        <ele>470.1</ele>
        <time>2018-03-20T13:35:41Z</time>
      </trkpt>
      <trkpt lat="47.23654" lon="4.90149">
        <ele>470.2</ele>
        <time>2018-03-20T13:35:49Z</time>
      </trkpt>
      <trkpt lat="47.23657" lon="4.90136">
        <ele>470.3</ele>
        <time>2018-03-20T13:35:57Z</time>
      </trkpt>
      <trkpt lat="47.23662" lon="4.90123">
        <ele>470.6</ele>
        <time>2018-03-20T13:36:05Z</time>
      </trkpt>
      <trkpt lat="47.23667" lon="4.90111">
        <ele>471</ele>
        <time>2018-03-20T13:36:12Z</time>
      </trkpt>
      <trkpt lat="47.23675" lon="4.90102">
        <ele>471.5</ele>
        <time>2018-03-20T13:36:20Z</time>
      </trkpt>
      <trkpt lat="47.23682" lon="4.90093">
        <ele>471.8</ele>
        <time>2018-03-20T13:36:29Z</time>
      </trkpt>
      <trkpt lat="47.23689" lon="4.90083">
        <ele>472.1</ele>
        <time>2018-03-20T13:36:37Z</time>
      </trkpt>
      <trkpt lat="47.23697" lon="4.90076">
        <ele>472.2</ele>
        <time>2018-03-20T13:36:45Z</time>
      </trkpt>
      <trkpt lat="47.23704" lon="4.90068">
        <ele>472.3</ele>
        <time>2018-03-20T13:36:51Z</time>
      </trkpt>
      <trkpt lat="47.2371" lon="4.90056">
        <ele>472.3</ele>
        <time>2018-03-20T13:37:00Z</time>
      </trkpt>
      <trkpt lat="47.23714" lon="4.90041">
        <ele>472</ele>
        <time>2018-03-20T13:37:09Z</time>
      </trkpt>
      <trkpt lat="47.23717" lon="4.90028">
        <ele>471.8</ele>
        <time>2018-03-20T13:37:15Z</time>
      </trkpt>
      <trkpt lat="47.23722" lon="4.90015">
        <ele>471.7</ele>
        <time>2018-03-20T13:37:23Z</time>
      </trkpt>
      <trkpt lat="47.23728" lon="4.90004">
        <ele>471.8</ele>
        <time>2018-03-20T13:37:30Z</time>
      </trkpt>
      <trkpt lat="47.23735" lon="4.89994">
        <ele>471.7</ele>
        <time>2018-03-20T13:37:38Z</time>
      </trkpt>
      <trkpt lat="47.23743" lon="4.89984">
        <ele>471.6</ele>
        <time>2018-03-20T13:37:46Z</time>
      </trkpt>
      <trkpt lat="47.2375" lon="4.89976">
        <ele>471.5</ele>
        <time>2018-03-20T13:37:53Z</time>
      </trkpt>
      <trkpt lat="47.2376" lon="4.89973">
        <ele>471.2</ele>
        <time>2018-03-20T13:38:05Z</time>
      </trkpt>
      <trkpt lat="47.23768" lon="4.89967">
        <ele>470.7</ele>
        <time>2018-03-20T13:38:14Z</time>
      </trkpt>
      <trkpt lat="47.23776" lon="4.89962">
        <ele>470.4</ele>
        <time>2018-03-20T13:38:21Z</time>
      </trkpt>
      <trkpt lat="47.23786" lon="4.89961">
        <ele>470.1</ele>
        <time>2018-03-20T13:38:31Z</time>
      </trkpt>
      <trkpt lat="47.23796" lon="4.8996">
        <ele>470</ele>
        <time>2018-03-20T13:38:39Z</time>
      </trkpt>
      <trkpt lat="47.23806" lon="4.89959">
        <ele>469.8</ele>
        <time>2018-03-20T13:38:47Z</time>
      </trkpt>
      <trkpt lat="47.23815" lon="4.89959">
        <ele>469.7</ele>
        <time>2018-03-20T13:38:55Z</time>
      </trkpt>
      <trkpt lat="47.23825" lon="4.89957">
        <ele>469.6</ele>
        <time>2018-03-20T13:39:03Z</time>
      </trkpt>
      <trkpt lat="47.23834" lon="4.89957">
        <ele>469.5</ele>
        <time>2018-03-20T13:39:10Z</time>
      </trkpt>
      <trkpt lat="47.23843" lon="4.89957">
        <ele>469.7</ele>
        <time>2018-03-20T13:39:18Z</time>
      </trkpt>
      <trkpt lat="47.23854" lon="4.89958">
        <ele>470</ele>
        <time>2018-03-20T13:39:26Z</time>
      </trkpt>
      <trkpt lat="47.23864" lon="4.89959">
        <ele>470.3</ele>
        <time>2018-03-20T13:39:33Z</time>
      </trkpt>
      <trkpt lat="47.23873" lon="4.89963">
        <ele>470.5</ele>
        <time>2018-03-20T13:39:41Z</time>
      </trkpt>
      <trkpt lat="47.23881" lon="4.89966">
        <ele>470.8</ele>
        <time>2018-03-20T13:39:49Z</time>
      </trkpt>
      <trkpt lat="47.2389" lon="4.89968">
        <ele>471</ele>
        <time>2018-03-20T13:39:58Z</time>
      </trkpt>
      <trkpt lat="47.239" lon="4.89969">
        <ele>471.3</ele>
        <time>2018-03-20T13:40:07Z</time>
      </trkpt>
      <trkpt lat="47.2391" lon="4.8997">
        <ele>471.5</ele>
        <time>2018-03-20T13:40:16Z</time>
      </trkpt>
      <trkpt lat="47.23921" lon="4.8997">
        <ele>471.6</ele>
        <time>2018-03-20T13:40:22Z</time>
      </trkpt>
      <trkpt lat="47.2393" lon="4.89972">
        <ele>471.7</ele>
        <time>2018-03-20T13:40:29Z</time>
      </trkpt>
      <trkpt lat="47.23939" lon="4.89973">
        <ele>471.7</ele>
        <time>2018-03-20T13:40:40Z</time>
      </trkpt>
      <trkpt lat="47.23948" lon="4.89974">
        <ele>471.7</ele>
        <time>2018-03-20T13:40:50Z</time>
      </trkpt>
      <trkpt lat="47.23957" lon="4.89977">
        <ele>471.7</ele>
        <time>2018-03-20T13:40:57Z</time>
      </trkpt>
      <trkpt lat="47.23967" lon="4.89979">
        <ele>471.8</ele>
        <time>2018-03-20T13:41:05Z</time>
      </trkpt>
      <trkpt lat="47.23976" lon="4.89981">
        <ele>471.8</ele>
        <time>2018-03-20T13:41:12Z</time>
      </trkpt>
      <trkpt lat="47.23985" lon="4.89985">
        <ele>471.8</ele>
        <time>2018-03-20T13:41:20Z</time>
      </trkpt>
      <trkpt lat="47.23994" lon="4.89987">
        <ele>471.8</ele>
        <time>2018-03-20T13:41:28Z</time>
      </trkpt>
      <trkpt lat="47.24003" lon="4.89992">
        <ele>471.9</ele>
        <time>2018-03-20T13:41:36Z</time>
      </trkpt>
      <trkpt lat="47.24012" lon="4.89997">
        <ele>472</ele>
        <time>2018-03-20T13:41:45Z</time>
      </trkpt>
      <trkpt lat="47.24021" lon="4.90001">
        <ele>472.1</ele>
        <time>2018-03-20T13:41:52Z</time>
      </trkpt>
      <trkpt lat="47.24029" lon="4.90007">
        <ele>472.3</ele>
        <time>2018-03-20T13:41:58Z</time>
      </trkpt>
      <trkpt lat="47.24038" lon="4.90014">
        <ele>472.5</ele>
        <time>2018-03-20T13:42:06Z</time>
      </trkpt>
      <trkpt lat="47.24046" lon="4.90022">
        <ele>472.8</ele>
        <time>2018-03-20T13:42:15Z</time>
      </trkpt>
      <trkpt lat="47.24053" lon="4.90031">
        <ele>473</ele>
        <time>2018-03-20T13:42:23Z</time>
      </trkpt>
      <trkpt lat="47.24061" lon="4.9004">
        <ele>473.2</ele>
        <time>2018-03-20T13:42:32Z</time>
      </trkpt>
      <trkpt lat="47.24069" lon="4.90047">
        <ele>473.3</ele>
        <time>2018-03-20T13:42:42Z</time>
      </trkpt>
      <trkpt lat="47.24077" lon="4.90054">
        <ele>473.4</ele>
        <time>2018-03-20T13:42:49Z</time>
      </trkpt>
      <trkpt lat="47.24083" lon="4.90064">
        <ele>473.5</ele>
        <time>2018-03-20T13:42:57Z</time>
      </trkpt>
      <trkpt lat="47.24091" lon="4.90073">
        <ele>473.3</ele>
        <time>2018-03-20T13:43:05Z</time>
      </trkpt>
      <trkpt lat="47.24099" lon="4.90082">
        <ele>473</ele>
        <time>2018-03-20T13:43:13Z</time>
      </trkpt>
      <trkpt lat="47.24107" lon="4.90088">
        <ele>472.6</ele>
        <time>2018-03-20T13:43:20Z</time>
      </trkpt>
      <trkpt lat="47.24116" lon="4.90094">
        <ele>472.2</ele>
        <time>2018-03-20T13:43:28Z</time>
      </trkpt>
      <trkpt lat="47.24124" lon="4.90101">
        <ele>471.8</ele>
        <time>2018-03-20T13:43:36Z</time>
      </trkpt>
      <trkpt lat="47.24132" lon="4.90109">
        <ele>471.4</ele>
        <time>2018-03-20T13:43:44Z</time>
      </trkpt>
      <trkpt lat="47.2414" lon="4.90116">
        <ele>471</ele>
        <time>2018-03-20T13:43:57Z</time>
      </trkpt>
      <trkpt lat="47.24148" lon="4.90125">
        <ele>470.6</ele>
        <time>2018-03-20T13:44:05Z</time>
      </trkpt>
      <trkpt lat="47.24156" lon="4.90133">
        <ele>470.3</ele>
        <time>2018-03-20T13:44:13Z</time>
      </trkpt>
      <trkpt lat="47.24162" lon="4.90142">
        <ele>470</ele>
        <time>2018-03-20T13:44:21Z</time>
      </trkpt>
      <trkpt lat="47.24168" lon="4.90153">
        <ele>469.7</ele>
        <time>2018-03-20T13:44:29Z</time>
      </trkpt>
      <trkpt lat="47.24174" lon="4.90164">
        <ele>469.3</ele>
        <time>2018-03-20T13:44:36Z</time>
      </trkpt>
      <trkpt lat="47.24182" lon="4.90172">
        <ele>468.9</ele>
        <time>2018-03-20T13:44:43Z</time>
      </trkpt>
      <trkpt lat="47.24188" lon="4.90182">
        <ele>468.6</ele>
        <time>2018-03-20T13:44:49Z</time>
      </trkpt>
      <trkpt lat="47.24195" lon="4.90191">
        <ele>468.3</ele>
        <time>2018-03-20T13:44:56Z</time>
      </trkpt>
      <trkpt lat="47.24202" lon="4.90202">
        <ele>468</ele>
        <time>2018-03-20T13:45:04Z</time>
      </trkpt>
      <trkpt lat="47.24208" lon="4.90213">
        <ele>467.9</ele>
        <time>2018-03-20T13:45:12Z</time>
      </trkpt>
      <trkpt lat="47.24214" lon="4.90224">
        <ele>467.8</ele>
        <time>2018-03-20T13:45:21Z</time>
      </trkpt>
      <trkpt lat="47.24219" lon="4.90235">
        <ele>467.7</ele>
        <time>2018-03-20T13:45:29Z</time>
      </trkpt>
      <trkpt lat="47.24224" lon="4.90247">
        <ele>467.7</ele>
        <time>2018-03-20T13:45:38Z</time>
      </trkpt>
      <trkpt lat="47.24231" lon="4.90258">
        <ele>467.4</ele>
        <time>2018-03-20T13:45:46Z</time>
      </trkpt>
      <trkpt lat="47.24238" lon="4.90268">
        <ele>466.9</ele>
        <time>2018-03-20T13:45:52Z</time>
      </trkpt>
      <trkpt lat="47.24244" lon="4.90278">
        <ele>466.5</ele>
        <time>2018-03-20T13:45:58Z</time>
      </trkpt>
      <trkpt lat="47.2425" lon="4.90288">
        <ele>466</ele>
        <time>2018-03-20T13:46:04Z</time>
      </trkpt>
      <trkpt lat="47.24256" lon="4.903">
        <ele>465.9</ele>
        <time>2018-03-20T13:46:11Z</time>
      </trkpt>
      <trkpt lat="47.24262" lon="4.9031">
        <ele>465.8</ele>
        <time>2018-03-20T13:46:18Z</time>
      </trkpt>
      <trkpt lat="47.24269" lon="4.90321">
        <ele>465.6</ele>
        <time>2018-03-20T13:46:25Z</time>
      </trkpt>
      <trkpt lat="47.24274" lon="4.90332">
        <ele>465.4</ele>
        <time>2018-03-20T13:46:33Z</time>
      </trkpt>
      <trkpt lat="47.24278" lon="4.90344">
        <ele>465.4</ele>
        <time>2018-03-20T13:46:41Z</time>
      </trkpt>
      <trkpt lat="47.24281" lon="4.90356">
        <ele>465.3</ele>
        <time>2018-03-20T13:46:50Z</time>
      </trkpt>
      <trkpt lat="47.24288" lon="4.90368">
        <ele>465.1</ele>
        <time>2018-03-20T13:46:59Z</time>
      </trkpt>
      <trkpt lat="47.24295" lon="4.90378">
        <ele>464.9</ele>
        <time>2018-03-20T13:47:07Z</time>
      </trkpt>
      <trkpt lat="47.24301" lon="4.90387">
        <ele>464.6</ele>
        <time>2018-03-20T13:47:17Z</time>
      </trkpt>
      <trkpt lat="47.24309" lon="4.90396">
        <ele>464.3</ele>
        <time>2018-03-20T13:47:26Z</time>
      </trkpt>
      <trkpt lat="47.24317" lon="4.90402">
        <ele>463.9</ele>
        <time>2018-03-20T13:47:33Z</time>
      </trkpt>
      <trkpt lat="47.24326" lon="4.90409">
        <ele>463.4</ele>
        <time>2018-03-20T13:47:42Z</time>
      </trkpt>
      <trkpt lat="47.24334" lon="4.90418">
        <ele>463</ele>
        <time>2018-03-20T13:47:50Z</time>
      </trkpt>
      <trkpt lat="47.24343" lon="4.90425">
        <ele>463.9</ele>
        <time>2018-03-20T13:47:58Z</time>
      </trkpt>
      <trkpt lat="47.24351" lon="4.90434">
        <ele>464.9</ele>
        <time>2018-03-20T13:48:06Z</time>
      </trkpt>
      <trkpt lat="47.24359" lon="4.90442">
        <ele>465.6</ele>
        <time>2018-03-20T13:48:15Z</time>
      </trkpt>
      <trkpt lat="47.24366" lon="4.90451">
        <ele>466.4</ele>
        <time>2018-03-20T13:48:23Z</time>
      </trkpt>
      <trkpt lat="47.24373" lon="4.90461">
        <ele>467.1</ele>
        <time>2018-03-20T13:48:31Z</time>
      </trkpt>
      <trkpt lat="47.24382" lon="4.90468">
        <ele>467.6</ele>
        <time>2018-03-20T13:48:41Z</time>
      </trkpt>
      <trkpt lat="47.2439" lon="4.90477">
        <ele>468.1</ele>
        <time>2018-03-20T13:48:50Z</time>
      </trkpt>
      <trkpt lat="47.24398" lon="4.90486">
        <ele>468.6</ele>
        <time>2018-03-20T13:48:58Z</time>
      </trkpt>
      <trkpt lat="47.24406" lon="4.90494">
        <ele>468.9</ele>
        <time>2018-03-20T13:49:05Z</time>
      </trkpt>
      <trkpt lat="47.24414" lon="4.90501">
        <ele>469</ele>
        <time>2018-03-20T13:49:15Z</time>
      </trkpt>
      <trkpt lat="47.24422" lon="4.9051">
        <ele>469.3</ele>
        <time>2018-03-20T13:49:22Z</time>
      </trkpt>
      <trkpt lat="47.2443" lon="4.90519">
        <ele>469.7</ele>
        <time>2018-03-20T13:49:30Z</time>
      </trkpt>
      <trkpt lat="47.24437" lon="4.90527">
        <ele>470</ele>
        <time>2018-03-20T13:49:39Z</time>
      </trkpt>
      <trkpt lat="47.24446" lon="4.90535">
        <ele>470.2</ele>
        <time>2018-03-20T13:49:47Z</time>
      </trkpt>
      <trkpt lat="47.24454" lon="4.90543">
        <ele>470.5</ele>
        <time>2018-03-20T13:49:56Z</time>
      </trkpt>
      <trkpt lat="47.24463" lon="4.90547">
        <ele>470.6</ele>
        <time>2018-03-20T13:54:36Z</time>
      </trkpt>
      <trkpt lat="47.24471" lon="4.90554">
        <ele>470.9</ele>
        <time>2018-03-20T13:54:46Z</time>
      </trkpt>
      <trkpt lat="47.24479" lon="4.90561">
        <ele>471.2</ele>
        <time>2018-03-20T13:54:54Z</time>
      </trkpt>
      <trkpt lat="47.24487" lon="4.90567">
        <ele>471.4</ele>
        <time>2018-03-20T13:55:03Z</time>
      </trkpt>
      <trkpt lat="47.24495" lon="4.90575">
        <ele>471.7</ele>
        <time>2018-03-20T13:55:12Z</time>
      </trkpt>
      <trkpt lat="47.24503" lon="4.90585">
        <ele>471.9</ele>
        <time>2018-03-20T13:55:22Z</time>
      </trkpt>
      <trkpt lat="47.2451" lon="4.90595">
        <ele>471.8</ele>
        <time>2018-03-20T13:55:30Z</time>
      </trkpt>
      <trkpt lat="47.24516" lon="4.90606">
        <ele>471.8</ele>
        <time>2018-03-20T13:55:38Z</time>
      </trkpt>
      <trkpt lat="47.24522" lon="4.90616">
        <ele>471.9</ele>
        <time>2018-03-20T13:55:46Z</time>
      </trkpt>
      <trkpt lat="47.24526" lon="4.9063">
        <ele>472.1</ele>
        <time>2018-03-20T13:55:55Z</time>
      </trkpt>
      <trkpt lat="47.2453" lon="4.90642">
        <ele>472.3</ele>
        <time>2018-03-20T13:56:03Z</time>
      </trkpt>
      <trkpt lat="47.24532" lon="4.90655">
        <ele>472.6</ele>
        <time>2018-03-20T13:56:11Z</time>
      </trkpt>
      <trkpt lat="47.24536" lon="4.90667">
        <ele>472.9</ele>
        <time>2018-03-20T13:56:19Z</time>
      </trkpt>
      <trkpt lat="47.24541" lon="4.90678">
        <ele>473.5</ele>
        <time>2018-03-20T13:56:25Z</time>
      </trkpt>
      <trkpt lat="47.24548" lon="4.90689">
        <ele>474.2</ele>
        <time>2018-03-20T13:56:33Z</time>
      </trkpt>
      <trkpt lat="47.24556" lon="4.90698">
        <ele>474.9</ele>
        <time>2018-03-20T13:56:40Z</time>
      </trkpt>
      <trkpt lat="47.24564" lon="4.90705">
        <ele>475.6</ele>
        <time>2018-03-20T13:56:51Z</time>
      </trkpt>
      <trkpt lat="47.24572" lon="4.90713">
        <ele>476.3</ele>
        <time>2018-03-20T13:56:59Z</time>
      </trkpt>
      <trkpt lat="47.2458" lon="4.90722">
        <ele>477.2</ele>
        <time>2018-03-20T13:57:08Z</time>
      </trkpt>
      <trkpt lat="47.24588" lon="4.90727">
        <ele>477.6</ele>
        <time>2018-03-20T13:57:17Z</time>
      </trkpt>
      <trkpt lat="47.24598" lon="4.90733">
        <ele>477.9</ele>
        <time>2018-03-20T13:57:25Z</time>
      </trkpt>
      <trkpt lat="47.24607" lon="4.90739">
        <ele>478.1</ele>
        <time>2018-03-20T13:57:37Z</time>
      </trkpt>
      <trkpt lat="47.24615" lon="4.90744">
        <ele>478.3</ele>
        <time>2018-03-20T13:57:47Z</time>
      </trkpt>
      <trkpt lat="47.24623" lon="4.9075">
        <ele>478.5</ele>
        <time>2018-03-20T13:57:56Z</time>
      </trkpt>
      <trkpt lat="47.24631" lon="4.90759">
        <ele>478.9</ele>
        <time>2018-03-20T13:58:08Z</time>
      </trkpt>
      <trkpt lat="47.24639" lon="4.90767">
        <ele>479.4</ele>
        <time>2018-03-20T13:58:18Z</time>
      </trkpt>
      <trkpt lat="47.24646" lon="4.90775">
        <ele>479.9</ele>
        <time>2018-03-20T13:58:29Z</time>
      </trkpt>
      <trkpt lat="47.24653" lon="4.90785">
        <ele>480.5</ele>
        <time>2018-03-20T13:58:40Z</time>
      </trkpt>
      <trkpt lat="47.2466" lon="4.90795">
        <ele>481.2</ele>
        <time>2018-03-20T13:58:51Z</time>
      </trkpt>
      <trkpt lat="47.24665" lon="4.90807">
        <ele>482</ele>
        <time>2018-03-20T13:59:01Z</time>
      </trkpt>
      <trkpt lat="47.2467" lon="4.90818">
        <ele>482.9</ele>
        <time>2018-03-20T13:59:11Z</time>
      </trkpt>
      <trkpt lat="47.24677" lon="4.90829">
        <ele>483.9</ele>
        <time>2018-03-20T13:59:20Z</time>
      </trkpt>
      <trkpt lat="47.24681" lon="4.90841">
        <ele>484.8</ele>
        <time>2018-03-20T13:59:31Z</time>
      </trkpt>
      <trkpt lat="47.24686" lon="4.90853">
        <ele>485.6</ele>
        <time>2018-03-20T13:59:41Z</time>
      </trkpt>
      <trkpt lat="47.24692" lon="4.90863">
        <ele>486.5</ele>
        <time>2018-03-20T13:59:52Z</time>
      </trkpt>
      <trkpt lat="47.24699" lon="4.90873">
        <ele>487.3</ele>
        <time>2018-03-20T14:00:01Z</time>
      </trkpt>
      <trkpt lat="47.24704" lon="4.90884">
        <ele>488.2</ele>
        <time>2018-03-20T14:00:12Z</time>
      </trkpt>
      <trkpt lat="47.24712" lon="4.90894">
        <ele>489.1</ele>
        <time>2018-03-20T14:00:23Z</time>
      </trkpt>
      <trkpt lat="47.24718" lon="4.90903">
        <ele>489.9</ele>
        <time>2018-03-20T14:00:33Z</time>
      </trkpt>
      <trkpt lat="47.24726" lon="4.90912">
        <ele>490.8</ele>
        <time>2018-03-20T14:00:44Z</time>
      </trkpt>
      <trkpt lat="47.24733" lon="4.90922">
        <ele>491.5</ele>
        <time>2018-03-20T14:00:54Z</time>
      </trkpt>
      <trkpt lat="47.24741" lon="4.9093">
        <ele>492</ele>
        <time>2018-03-20T14:01:03Z</time>
      </trkpt>
      <trkpt lat="47.24749" lon="4.9094">
        <ele>492.5</ele>
        <time>2018-03-20T14:01:14Z</time>
      </trkpt>
      <trkpt lat="47.24756" lon="4.90948">
        <ele>492.1</ele>
        <time>2018-03-20T14:01:24Z</time>
      </trkpt>
      <trkpt lat="47.24763" lon="4.90958">
        <ele>491.6</ele>
        <time>2018-03-20T14:01:33Z</time>
      </trkpt>
      <trkpt lat="47.2477" lon="4.90967">
        <ele>491.2</ele>
        <time>2018-03-20T14:01:41Z</time>
      </trkpt>
      <trkpt lat="47.24775" lon="4.90977">
        <ele>491</ele>
        <time>2018-03-20T14:01:52Z</time>
      </trkpt>
      <trkpt lat="47.24782" lon="4.90988">
        <ele>490.8</ele>
        <time>2018-03-20T14:02:04Z</time>
      </trkpt>
      <trkpt lat="47.24789" lon="4.90997">
        <ele>490.6</ele>
        <time>2018-03-20T14:02:13Z</time>
      </trkpt>
      <trkpt lat="47.24795" lon="4.91007">
        <ele>490.4</ele>
        <time>2018-03-20T14:02:22Z</time>
      </trkpt>
      <trkpt lat="47.248" lon="4.91019">
        <ele>490.2</ele>
        <time>2018-03-20T14:02:32Z</time>
      </trkpt>
      <trkpt lat="47.24808" lon="4.91026">
        <ele>489.5</ele>
        <time>2018-03-20T14:05:48Z</time>
      </trkpt>
      <trkpt lat="47.24814" lon="4.91037">
        <ele>489</ele>
        <time>2018-03-20T14:06:19Z</time>
      </trkpt>
      <trkpt lat="47.24824" lon="4.91039">
        <ele>488</ele>
        <time>2018-03-20T14:06:40Z</time>
      </trkpt>
      <trkpt lat="47.24833" lon="4.9104">
        <ele>487.1</ele>
        <time>2018-03-20T14:07:14Z</time>
      </trkpt>
      <trkpt lat="47.24842" lon="4.91045">
        <ele>486.5</ele>
        <time>2018-03-20T14:07:23Z</time>
      </trkpt>
      <trkpt lat="47.24847" lon="4.91057">
        <ele>486.3</ele>
        <time>2018-03-20T14:07:35Z</time>
      </trkpt>
      <trkpt lat="47.24855" lon="4.91065">
        <ele>485.9</ele>
        <time>2018-03-20T14:07:55Z</time>
      </trkpt>
      <trkpt lat="47.24863" lon="4.91072">
        <ele>485.7</ele>
        <time>2018-03-20T14:08:10Z</time>
      </trkpt>
      <trkpt lat="47.24874" lon="4.91061">
        <ele>484.9</ele>
        <time>2018-03-20T14:08:15Z</time>
      </trkpt>
      <trkpt lat="47.24882" lon="4.91066">
        <ele>484.6</ele>
        <time>2018-03-20T14:08:27Z</time>
      </trkpt>
      <trkpt lat="47.24891" lon="4.91068">
        <ele>484.3</ele>
        <time>2018-03-20T14:09:01Z</time>
      </trkpt>
      <trkpt lat="47.249" lon="4.91066">
        <ele>483.7</ele>
        <time>2018-03-20T14:09:08Z</time>
      </trkpt>
      <trkpt lat="47.24908" lon="4.91059">
        <ele>483</ele>
        <time>2018-03-20T14:09:22Z</time>
      </trkpt>
      <trkpt lat="47.24916" lon="4.91051">
        <ele>482.1</ele>
        <time>2018-03-20T14:09:35Z</time>
      </trkpt>
      <trkpt lat="47.24926" lon="4.91046">
        <ele>481.1</ele>
        <time>2018-03-20T14:09:47Z</time>
      </trkpt>
      <trkpt lat="47.24935" lon="4.91043">
        <ele>480.4</ele>
        <time>2018-03-20T14:09:56Z</time>
      </trkpt>
      <trkpt lat="47.24944" lon="4.91037">
        <ele>479.4</ele>
        <time>2018-03-20T14:10:12Z</time>
      </trkpt>
      <trkpt lat="47.24951" lon="4.91027">
        <ele>478.5</ele>
        <time>2018-03-20T14:10:25Z</time>
      </trkpt>
      <trkpt lat="47.24959" lon="4.9102">
        <ele>477.5</ele>
        <time>2018-03-20T14:10:36Z</time>
      </trkpt>
      <trkpt lat="47.24968" lon="4.91016">
        <ele>476.8</ele>
        <time>2018-03-20T14:10:47Z</time>
      </trkpt>
      <trkpt lat="47.24976" lon="4.9101">
        <ele>475.9</ele>
        <time>2018-03-20T14:10:59Z</time>
      </trkpt>
      <trkpt lat="47.24986" lon="4.91012">
        <ele>475.4</ele>
        <time>2018-03-20T14:11:05Z</time>
      </trkpt>
      <trkpt lat="47.24996" lon="4.91015">
        <ele>475</ele>
        <time>2018-03-20T14:11:22Z</time>
      </trkpt>
      <trkpt lat="47.25004" lon="4.91022">
        <ele>474.5</ele>
        <time>2018-03-20T14:11:27Z</time>
      </trkpt>
      <trkpt lat="47.25013" lon="4.9103">
        <ele>473.9</ele>
        <time>2018-03-20T14:11:35Z</time>
      </trkpt>
      <trkpt lat="47.25021" lon="4.91038">
        <ele>473.4</ele>
        <time>2018-03-20T14:11:45Z</time>
      </trkpt>
      <trkpt lat="47.25027" lon="4.91049">
        <ele>473.3</ele>
        <time>2018-03-20T14:11:55Z</time>
      </trkpt>
      <trkpt lat="47.25035" lon="4.91054">
        <ele>472.7</ele>
        <time>2018-03-20T14:12:09Z</time>
      </trkpt>
      <trkpt lat="47.25044" lon="4.91053">
        <ele>471.6</ele>
        <time>2018-03-20T14:12:20Z</time>
      </trkpt>
      <trkpt lat="47.25053" lon="4.91059">
        <ele>470.9</ele>
        <time>2018-03-20T14:12:30Z</time>
      </trkpt>
      <trkpt lat="47.25062" lon="4.91062">
        <ele>470</ele>
        <time>2018-03-20T14:12:40Z</time>
      </trkpt>
      <trkpt lat="47.25071" lon="4.91061">
        <ele>469</ele>
        <time>2018-03-20T14:12:47Z</time>
      </trkpt>
      <trkpt lat="47.2508" lon="4.91065">
        <ele>468.2</ele>
        <time>2018-03-20T14:12:59Z</time>
      </trkpt>
      <trkpt lat="47.25091" lon="4.91066">
        <ele>468.2</ele>
        <time>2018-03-20T14:13:13Z</time>
      </trkpt>
      <trkpt lat="47.25103" lon="4.91068">
        <ele>468.7</ele>
        <time>2018-03-20T14:13:19Z</time>
      </trkpt>
      <trkpt lat="47.25112" lon="4.91074">
        <ele>469.1</ele>
        <time>2018-03-20T14:13:24Z</time>
      </trkpt>
      <trkpt lat="47.25121" lon="4.9108">
        <ele>469.4</ele>
        <time>2018-03-20T14:13:36Z</time>
      </trkpt>
      <trkpt lat="47.25131" lon="4.91082">
        <ele>469.6</ele>
        <time>2018-03-20T14:13:43Z</time>
      </trkpt>
      <trkpt lat="47.25141" lon="4.91086">
        <ele>469.7</ele>
        <time>2018-03-20T14:13:54Z</time>
      </trkpt>
      <trkpt lat="47.2515" lon="4.91089">
        <ele>469.9</ele>
        <time>2018-03-20T14:14:09Z</time>
      </trkpt>
      <trkpt lat="47.25158" lon="4.91096">
        <ele>470.1</ele>
        <time>2018-03-20T14:14:19Z</time>
      </trkpt>
      <trkpt lat="47.25168" lon="4.91101">
        <ele>470.4</ele>
        <time>2018-03-20T14:14:30Z</time>
      </trkpt>
      <trkpt lat="47.25177" lon="4.91104">
        <ele>471.9</ele>
        <time>2018-03-20T14:14:36Z</time>
      </trkpt>
      <trkpt lat="47.25186" lon="4.91109">
        <ele>473.4</ele>
        <time>2018-03-20T14:14:53Z</time>
      </trkpt>
      <trkpt lat="47.25195" lon="4.91115">
        <ele>474.9</ele>
        <time>2018-03-20T14:15:02Z</time>
      </trkpt>
      <trkpt lat="47.25204" lon="4.9111">
        <ele>476.2</ele>
        <time>2018-03-20T14:15:23Z</time>
      </trkpt>
      <trkpt lat="47.25206" lon="4.91097">
        <ele>476.4</ele>
        <time>2018-03-20T14:18:23Z</time>
      </trkpt>
      <trkpt lat="47.25213" lon="4.91084">
        <ele>477.3</ele>
        <time>2018-03-20T14:18:43Z</time>
      </trkpt>
      <trkpt lat="47.25211" lon="4.91071">
        <ele>477.7</ele>
        <time>2018-03-20T14:18:57Z</time>
      </trkpt>
      <trkpt lat="47.25209" lon="4.91057">
        <ele>478.2</ele>
        <time>2018-03-20T14:19:17Z</time>
      </trkpt>
      <trkpt lat="47.25218" lon="4.91052">
        <ele>479.9</ele>
        <time>2018-03-20T14:19:46Z</time>
      </trkpt>
      <trkpt lat="47.25229" lon="4.91051">
        <ele>481.7</ele>
        <time>2018-03-20T14:20:21Z</time>
      </trkpt>
      <trkpt lat="47.25238" lon="4.91054">
        <ele>482.9</ele>
        <time>2018-03-20T14:20:25Z</time>
      </trkpt>
      <trkpt lat="47.25246" lon="4.91048">
        <ele>484.5</ele>
        <time>2018-03-20T14:20:53Z</time>
      </trkpt>
      <trkpt lat="47.25255" lon="4.91048">
        <ele>485.8</ele>
        <time>2018-03-20T14:21:06Z</time>
      </trkpt>
      <trkpt lat="47.25264" lon="4.91051">
        <ele>486.6</ele>
        <time>2018-03-20T14:21:24Z</time>
      </trkpt>
      <trkpt lat="47.25274" lon="4.91055">
        <ele>487.7</ele>
        <time>2018-03-20T14:21:58Z</time>
      </trkpt>
      <trkpt lat="47.25284" lon="4.91055">
        <ele>489</ele>
        <time>2018-03-20T14:22:02Z</time>
      </trkpt>
      <trkpt lat="47.25294" lon="4.91058">
        <ele>490.1</ele>
        <time>2018-03-20T14:22:25Z</time>
      </trkpt>
      <trkpt lat="47.25303" lon="4.91055">
        <ele>491.2</ele>
        <time>2018-03-20T14:23:48Z</time>
      </trkpt>
      <trkpt lat="47.25312" lon="4.91056">
        <ele>492.3</ele>
        <time>2018-03-20T14:24:20Z</time>
      </trkpt>
      <trkpt lat="47.25321" lon="4.91061">
        <ele>493.4</ele>
        <time>2018-03-20T14:24:55Z</time>
      </trkpt>
      <trkpt lat="47.25325" lon="4.91073">
        <ele>493.9</ele>
        <time>2018-03-20T14:25:07Z</time>
      </trkpt>
      <trkpt lat="47.2533" lon="4.91085">
        <ele>494.5</ele>
        <time>2018-03-20T14:25:26Z</time>
      </trkpt>
      <trkpt lat="47.25337" lon="4.91093">
        <ele>495.7</ele>
        <time>2018-03-20T14:25:38Z</time>
      </trkpt>
      <trkpt lat="47.25339" lon="4.91107">
        <ele>496.3</ele>
        <time>2018-03-20T14:25:51Z</time>
      </trkpt>
      <trkpt lat="47.25333" lon="4.91116">
        <ele>496.1</ele>
        <time>2018-03-20T14:26:03Z</time>
      </trkpt>
      <trkpt lat="47.2533" lon="4.91129">
        <ele>496.2</ele>
        <time>2018-03-20T14:26:15Z</time>
      </trkpt>
      <trkpt lat="47.25325" lon="4.91141">
        <ele>495.8</ele>
        <time>2018-03-20T14:26:25Z</time>
      </trkpt>
      <trkpt lat="47.2532" lon="4.91152">
        <ele>495.5</ele>
        <time>2018-03-20T14:26:34Z</time>
      </trkpt>
      <trkpt lat="47.25318" lon="4.91166">
        <ele>495.5</ele>
        <time>2018-03-20T14:26:45Z</time>
      </trkpt>
      <trkpt lat="47.25314" lon="4.91178">
        <ele>495.3</ele>
        <time>2018-03-20T14:26:56Z</time>
      </trkpt>
      <trkpt lat="47.25314" lon="4.91193">
        <ele>495.6</ele>
        <time>2018-03-20T14:27:04Z</time>
      </trkpt>
      <trkpt lat="47.25318" lon="4.91206">
        <ele>496.4</ele>
        <time>2018-03-20T14:27:10Z</time>
      </trkpt>
      <trkpt lat="47.25324" lon="4.91219">
        <ele>497.4</ele>
        <time>2018-03-20T14:27:21Z</time>
      </trkpt>
      <trkpt lat="47.25332" lon="4.91229">
        <ele>498.6</ele>
        <time>2018-03-20T14:27:36Z</time>
      </trkpt>
      <trkpt lat="47.2534" lon="4.91236">
        <ele>499.1</ele>
        <time>2018-03-20T14:27:51Z</time>
      </trkpt>
      <trkpt lat="47.25346" lon="4.91246">
        <ele>499.4</ele>
        <time>2018-03-20T14:28:06Z</time>
      </trkpt>
      <trkpt lat="47.25354" lon="4.91254">
        <ele>499.8</ele>
        <time>2018-03-20T14:28:14Z</time>
      </trkpt>
      <trkpt lat="47.25358" lon="4.91266">
        <ele>500.2</ele>
        <time>2018-03-20T14:28:36Z</time>
      </trkpt>
      <trkpt lat="47.25365" lon="4.91276">
        <ele>500.6</ele>
        <time>2018-03-20T14:28:45Z</time>
      </trkpt>
      <trkpt lat="47.25367" lon="4.91289">
        <ele>501.1</ele>
        <time>2018-03-20T14:29:09Z</time>
      </trkpt>
      <trkpt lat="47.25375" lon="4.91299">
        <ele>501.7</ele>
        <time>2018-03-20T14:29:24Z</time>
      </trkpt>
      <trkpt lat="47.25382" lon="4.91308">
        <ele>502.2</ele>
        <time>2018-03-20T14:29:33Z</time>
      </trkpt>
      <trkpt lat="47.25389" lon="4.91315">
        <ele>502.8</ele>
        <time>2018-03-20T14:29:46Z</time>
      </trkpt>
      <trkpt lat="47.25396" lon="4.91324">
        <ele>503.5</ele>
        <time>2018-03-20T14:29:56Z</time>
      </trkpt>
      <trkpt lat="47.25404" lon="4.91332">
        <ele>504.2</ele>
        <time>2018-03-20T14:30:07Z</time>
      </trkpt>
      <trkpt lat="47.25412" lon="4.9134">
        <ele>504.7</ele>
        <time>2018-03-20T14:30:22Z</time>
      </trkpt>
      <trkpt lat="47.2542" lon="4.91347">
        <ele>505</ele>
        <time>2018-03-20T14:30:30Z</time>
      </trkpt>
      <trkpt lat="47.25427" lon="4.91359">
        <ele>505</ele>
        <time>2018-03-20T14:30:40Z</time>
      </trkpt>
      <trkpt lat="47.25435" lon="4.91364">
        <ele>505</ele>
        <time>2018-03-20T14:30:50Z</time>
      </trkpt>
      <trkpt lat="47.25444" lon="4.91372">
        <ele>505</ele>
        <time>2018-03-20T14:31:07Z</time>
      </trkpt>
      <trkpt lat="47.25454" lon="4.91372">
        <ele>505</ele>
        <time>2018-03-20T14:31:20Z</time>
      </trkpt>
      <trkpt lat="47.25461" lon="4.91381">
        <ele>505</ele>
        <time>2018-03-20T14:31:43Z</time>
      </trkpt>
      <trkpt lat="47.25469" lon="4.91388">
        <ele>505</ele>
        <time>2018-03-20T14:31:58Z</time>
      </trkpt>
      <trkpt lat="47.2546" lon="4.91389">
        <ele>505</ele>
        <time>2018-03-20T14:33:22Z</time>
      </trkpt>
      <trkpt lat="47.25468" lon="4.91395">
        <ele>505</ele>
        <time>2018-03-20T14:36:49Z</time>
      </trkpt>
      <trkpt lat="47.25476" lon="4.91402">
        <ele>505</ele>
        <time>2018-03-20T14:36:56Z</time>
      </trkpt>
      <trkpt lat="47.25489" lon="4.91403">
        <ele>505</ele>
        <time>2018-03-20T14:37:02Z</time>
      </trkpt>
      <trkpt lat="47.25499" lon="4.91407">
        <ele>505</ele>
        <time>2018-03-20T14:37:13Z</time>
      </trkpt>
      <trkpt lat="47.25507" lon="4.91414">
        <ele>503.7</ele>
        <time>2018-03-20T14:37:22Z</time>
      </trkpt>
      <trkpt lat="47.25516" lon="4.91422">
        <ele>502.5</ele>
        <time>2018-03-20T14:37:27Z</time>
      </trkpt>
      <trkpt lat="47.25525" lon="4.91429">
        <ele>501.5</ele>
        <time>2018-03-20T14:37:34Z</time>
      </trkpt>
      <trkpt lat="47.25533" lon="4.91433">
        <ele>500.3</ele>
        <time>2018-03-20T14:37:43Z</time>
      </trkpt>
      <trkpt lat="47.25542" lon="4.91437">
        <ele>499.1</ele>
        <time>2018-03-20T14:37:49Z</time>
      </trkpt>
      <trkpt lat="47.25551" lon="4.91445">
        <ele>498.2</ele>
        <time>2018-03-20T14:37:58Z</time>
      </trkpt>
      <trkpt lat="47.25559" lon="4.91451">
        <ele>497.2</ele>
        <time>2018-03-20T14:38:06Z</time>
      </trkpt>
      <trkpt lat="47.25569" lon="4.91448">
        <ele>495.4</ele>
        <time>2018-03-20T14:38:19Z</time>
      </trkpt>
      <trkpt lat="47.25578" lon="4.91445">
        <ele>493.9</ele>
        <time>2018-03-20T14:38:24Z</time>
      </trkpt>
      <trkpt lat="47.25582" lon="4.91431">
        <ele>492.2</ele>
        <time>2018-03-20T14:38:32Z</time>
      </trkpt>
      <trkpt lat="47.25585" lon="4.91418">
        <ele>491</ele>
        <time>2018-03-20T14:38:40Z</time>
      </trkpt>
      <trkpt lat="47.25592" lon="4.91407">
        <ele>491</ele>
        <time>2018-03-20T14:38:49Z</time>
      </trkpt>
      <trkpt lat="47.25595" lon="4.91395">
        <ele>491</ele>
        <time>2018-03-20T14:38:57Z</time>
      </trkpt>
      <trkpt lat="47.25598" lon="4.91382">
        <ele>491</ele>
        <time>2018-03-20T14:39:04Z</time>
      </trkpt>
      <trkpt lat="47.25604" lon="4.9137">
        <ele>491</ele>
        <time>2018-03-20T14:39:09Z</time>
      </trkpt>
      <trkpt lat="47.25606" lon="4.91356">
        <ele>491</ele>
        <time>2018-03-20T14:39:18Z</time>
      </trkpt>
      <trkpt lat="47.25607" lon="4.91342">
        <ele>491</ele>
        <time>2018-03-20T14:39:27Z</time>
      </trkpt>
      <trkpt lat="47.25607" lon="4.91328">
        <ele>491.1</ele>
        <time>2018-03-20T14:39:37Z</time>
      </trkpt>
      <trkpt lat="47.25612" lon="4.91316">
        <ele>491.2</ele>
        <time>2018-03-20T14:39:44Z</time>
      </trkpt>
      <trkpt lat="47.25614" lon="4.91302">
        <ele>491.4</ele>
        <time>2018-03-20T14:39:50Z</time>
      </trkpt>
      <trkpt lat="47.25612" lon="4.91287">
        <ele>491.6</ele>
        <time>2018-03-20T14:40:02Z</time>
      </trkpt>
      <trkpt lat="47.25622" lon="4.91278">
        <ele>491.7</ele>
        <time>2018-03-20T14:40:06Z</time>
      </trkpt>
      <trkpt lat="47.25628" lon="4.91268">
        <ele>491.8</ele>
        <time>2018-03-20T14:40:12Z</time>
      </trkpt>
      <trkpt lat="47.25635" lon="4.91257">
        <ele>491.9</ele>
        <time>2018-03-20T14:40:21Z</time>
      </trkpt>
      <trkpt lat="47.25635" lon="4.91242">
        <ele>492</ele>
        <time>2018-03-20T14:40:30Z</time>
      </trkpt>
      <trkpt lat="47.25638" lon="4.91229">
        <ele>492</ele>
        <time>2018-03-20T14:40:36Z</time>
      </trkpt>
      <trkpt lat="47.25641" lon="4.91215">
        <ele>492</ele>
        <time>2018-03-20T14:40:44Z</time>
      </trkpt>
      <trkpt lat="47.25645" lon="4.91201">
        <ele>492</ele>
        <time>2018-03-20T14:40:53Z</time>
      </trkpt>
      <trkpt lat="47.25646" lon="4.91187">
        <ele>492</ele>
        <time>2018-03-20T14:41:05Z</time>
      </trkpt>
      <trkpt lat="47.25652" lon="4.91174">
        <ele>492</ele>
        <time>2018-03-20T14:41:10Z</time>
      </trkpt>
      <trkpt lat="47.25653" lon="4.91158">
        <ele>491.9</ele>
        <time>2018-03-20T14:41:23Z</time>
      </trkpt>
      <trkpt lat="47.25657" lon="4.91144">
        <ele>491.7</ele>
        <time>2018-03-20T14:41:30Z</time>
      </trkpt>
      <trkpt lat="47.25656" lon="4.91129">
        <ele>491.5</ele>
        <time>2018-03-20T14:41:41Z</time>
      </trkpt>
      <trkpt lat="47.25653" lon="4.91117">
        <ele>491.4</ele>
        <time>2018-03-20T14:41:48Z</time>
      </trkpt>
      <trkpt lat="47.25655" lon="4.91104">
        <ele>491.2</ele>
        <time>2018-03-20T14:41:57Z</time>
      </trkpt>
      <trkpt lat="47.25663" lon="4.91097">
        <ele>491.2</ele>
        <time>2018-03-20T14:42:01Z</time>
      </trkpt>
      <trkpt lat="47.25668" lon="4.91084">
        <ele>490.9</ele>
        <time>2018-03-20T14:42:10Z</time>
      </trkpt>
      <trkpt lat="47.25669" lon="4.91071">
        <ele>490.8</ele>
        <time>2018-03-20T14:42:19Z</time>
      </trkpt>
      <trkpt lat="47.25675" lon="4.91057">
        <ele>490.5</ele>
        <time>2018-03-20T14:42:24Z</time>
      </trkpt>
      <trkpt lat="47.2568" lon="4.91044">
        <ele>490.2</ele>
        <time>2018-03-20T14:42:33Z</time>
      </trkpt>
      <trkpt lat="47.25678" lon="4.9103">
        <ele>490.3</ele>
        <time>2018-03-20T14:42:43Z</time>
      </trkpt>
      <trkpt lat="47.2568" lon="4.91016">
        <ele>490.2</ele>
        <time>2018-03-20T14:42:53Z</time>
      </trkpt>
      <trkpt lat="47.25687" lon="4.91007">
        <ele>489.8</ele>
        <time>2018-03-20T14:42:59Z</time>
      </trkpt>
      <trkpt lat="47.25691" lon="4.90993">
        <ele>490.6</ele>
        <time>2018-03-20T14:43:07Z</time>
      </trkpt>
      <trkpt lat="47.25693" lon="4.9098">
        <ele>492.3</ele>
        <time>2018-03-20T14:43:16Z</time>
      </trkpt>
      <trkpt lat="47.25694" lon="4.90966">
        <ele>494.1</ele>
        <time>2018-03-20T14:43:24Z</time>
      </trkpt>
      <trkpt lat="47.25698" lon="4.90954">
        <ele>496</ele>
        <time>2018-03-20T14:43:36Z</time>
      </trkpt>
      <trkpt lat="47.25697" lon="4.9094">
        <ele>498.1</ele>
        <time>2018-03-20T14:43:43Z</time>
      </trkpt>
      <trkpt lat="47.25703" lon="4.90925">
        <ele>500.7</ele>
        <time>2018-03-20T14:43:51Z</time>
      </trkpt>
      <trkpt lat="47.25709" lon="4.90915">
        <ele>502.6</ele>
        <time>2018-03-20T14:43:58Z</time>
      </trkpt>
      <trkpt lat="47.25713" lon="4.90903">
        <ele>503</ele>
        <time>2018-03-20T14:44:08Z</time>
      </trkpt>
      <trkpt lat="47.25716" lon="4.90889">
        <ele>503.3</ele>
        <time>2018-03-20T14:44:18Z</time>
      </trkpt>
      <trkpt lat="47.25712" lon="4.90878">
        <ele>502.9</ele>
        <time>2018-03-20T14:44:32Z</time>
      </trkpt>
      <trkpt lat="47.25702" lon="4.90877">
        <ele>501.8</ele>
        <time>2018-03-20T14:44:42Z</time>
      </trkpt>
      <trkpt lat="47.25693" lon="4.90872">
        <ele>500.8</ele>
        <time>2018-03-20T14:44:51Z</time>
      </trkpt>
      <trkpt lat="47.25684" lon="4.90867">
        <ele>499.9</ele>
        <time>2018-03-20T14:44:59Z</time>
      </trkpt>
      <trkpt lat="47.25674" lon="4.90862">
        <ele>498.8</ele>
        <time>2018-03-20T14:45:13Z</time>
      </trkpt>
      <trkpt lat="47.25665" lon="4.9086">
        <ele>498</ele>
        <time>2018-03-20T14:45:23Z</time>
      </trkpt>
      <trkpt lat="47.25657" lon="4.90853">
        <ele>498</ele>
        <time>2018-03-20T14:45:35Z</time>
      </trkpt>
      <trkpt lat="47.25648" lon="4.90848">
        <ele>498</ele>
        <time>2018-03-20T14:45:46Z</time>
      </trkpt>
      <trkpt lat="47.2564" lon="4.90841">
        <ele>498</ele>
        <time>2018-03-20T14:45:57Z</time>
      </trkpt>
      <trkpt lat="47.25632" lon="4.90836">
        <ele>498</ele>
        <time>2018-03-20T14:46:07Z</time>
      </trkpt>
      <trkpt lat="47.25623" lon="4.9084">
        <ele>498</ele>
        <time>2018-03-20T14:46:17Z</time>
      </trkpt>
      <trkpt lat="47.25615" lon="4.90846">
        <ele>498</ele>
        <time>2018-03-20T14:46:39Z</time>
      </trkpt>
      <trkpt lat="47.25605" lon="4.90842">
        <ele>498</ele>
        <time>2018-03-20T14:47:56Z</time>
      </trkpt>
      <trkpt lat="47.25598" lon="4.90851">
        <ele>498</ele>
        <time>2018-03-20T14:48:04Z</time>
      </trkpt>
      <trkpt lat="47.25602" lon="4.90838">
        <ele>498</ele>
        <time>2018-03-20T14:48:41Z</time>
      </trkpt>
      <trkpt lat="47.25602" lon="4.90824">
        <ele>500.4</ele>
        <time>2018-03-20T14:48:57Z</time>
      </trkpt>
      <trkpt lat="47.256" lon="4.9081">
        <ele>503.3</ele>
        <time>2018-03-20T14:49:05Z</time>
      </trkpt>
      <trkpt lat="47.25591" lon="4.90806">
        <ele>504.2</ele>
        <time>2018-03-20T14:51:10Z</time>
      </trkpt>
      <trkpt lat="47.25596" lon="4.90794">
        <ele>507.2</ele>
        <time>2018-03-20T14:51:53Z</time>
      </trkpt>
      <trkpt lat="47.25606" lon="4.90794">
        <ele>506.9</ele>
        <time>2018-03-20T14:51:55Z</time>
      </trkpt>
      <trkpt lat="47.25612" lon="4.90782">
        <ele>509.9</ele>
        <time>2018-03-20T14:52:54Z</time>
      </trkpt>
      <trkpt lat="47.25603" lon="4.90782">
        <ele>509.9</ele>
        <time>2018-03-20T14:53:06Z</time>
      </trkpt>
      <trkpt lat="47.25611" lon="4.90791">
        <ele>507.8</ele>
        <time>2018-03-20T14:53:48Z</time>
      </trkpt>
      <trkpt lat="47.25619" lon="4.90797">
        <ele>506.3</ele>
        <time>2018-03-20T14:55:29Z</time>
      </trkpt>
      <trkpt lat="47.2561" lon="4.90796">
        <ele>506.6</ele>
        <time>2018-03-20T14:58:00Z</time>
      </trkpt>
      <trkpt lat="47.25607" lon="4.90809">
        <ele>503.6</ele>
        <time>2018-03-20T14:58:33Z</time>
      </trkpt>
      <trkpt lat="47.256" lon="4.908">
        <ele>505.7</ele>
        <time>2018-03-20T15:00:02Z</time>
      </trkpt>
      <trkpt lat="47.25602" lon="4.90814">
        <ele>502.5</ele>
        <time>2018-03-20T15:01:06Z</time>
      </trkpt>
      <trkpt lat="47.25603" lon="4.90828">
        <ele>499.2</ele>
        <time>2018-03-20T15:01:19Z</time>
      </trkpt>
      <trkpt lat="47.25601" lon="4.90842">
        <ele>498</ele>
        <time>2018-03-20T15:01:32Z</time>
      </trkpt>
      <trkpt lat="47.25596" lon="4.90855">
        <ele>498</ele>
        <time>2018-03-20T15:01:41Z</time>
      </trkpt>
      <trkpt lat="47.25594" lon="4.90868">
        <ele>498</ele>
        <time>2018-03-20T15:01:49Z</time>
      </trkpt>
      <trkpt lat="47.25591" lon="4.90882">
        <ele>498</ele>
        <time>2018-03-20T15:01:58Z</time>
      </trkpt>
      <trkpt lat="47.2559" lon="4.90895">
        <ele>498</ele>
        <time>2018-03-20T15:02:08Z</time>
      </trkpt>
      <trkpt lat="47.25586" lon="4.90909">
        <ele>498</ele>
        <time>2018-03-20T15:02:24Z</time>
      </trkpt>
      <trkpt lat="47.25582" lon="4.90922">
        <ele>497.7</ele>
        <time>2018-03-20T15:02:32Z</time>
      </trkpt>
      <trkpt lat="47.25577" lon="4.90935">
        <ele>497.1</ele>
        <time>2018-03-20T15:02:40Z</time>
      </trkpt>
      <trkpt lat="47.25574" lon="4.90947">
        <ele>496.5</ele>
        <time>2018-03-20T15:02:49Z</time>
      </trkpt>
      <trkpt lat="47.2557" lon="4.9096">
        <ele>495.8</ele>
        <time>2018-03-20T15:02:58Z</time>
      </trkpt>
      <trkpt lat="47.25569" lon="4.90973">
        <ele>495.1</ele>
        <time>2018-03-20T15:03:04Z</time>
      </trkpt>
      <trkpt lat="47.25565" lon="4.90986">
        <ele>494.6</ele>
        <time>2018-03-20T15:03:12Z</time>
      </trkpt>
      <trkpt lat="47.25562" lon="4.90999">
        <ele>494.3</ele>
        <time>2018-03-20T15:03:21Z</time>
      </trkpt>
      <trkpt lat="47.2556" lon="4.91013">
        <ele>494.4</ele>
        <time>2018-03-20T15:03:25Z</time>
      </trkpt>
      <trkpt lat="47.25557" lon="4.91026">
        <ele>494.8</ele>
        <time>2018-03-20T15:03:34Z</time>
      </trkpt>
      <trkpt lat="47.25554" lon="4.9104">
        <ele>495.3</ele>
        <time>2018-03-20T15:03:42Z</time>
      </trkpt>
      <trkpt lat="47.2555" lon="4.91053">
        <ele>495.7</ele>
        <time>2018-03-20T15:03:53Z</time>
      </trkpt>
      <trkpt lat="47.25548" lon="4.91066">
        <ele>496.1</ele>
        <time>2018-03-20T15:03:59Z</time>
      </trkpt>
      <trkpt lat="47.25545" lon="4.9108">
        <ele>496.5</ele>
        <time>2018-03-20T15:04:07Z</time>
      </trkpt>
      <trkpt lat="47.25542" lon="4.91093">
        <ele>497</ele>
        <time>2018-03-20T15:04:15Z</time>
      </trkpt>
      <trkpt lat="47.25539" lon="4.91106">
        <ele>497.4</ele>
        <time>2018-03-20T15:04:22Z</time>
      </trkpt>
      <trkpt lat="47.25537" lon="4.9112">
        <ele>497.7</ele>
        <time>2018-03-20T15:04:29Z</time>
      </trkpt>
      <trkpt lat="47.25534" lon="4.91132">
        <ele>498</ele>
        <time>2018-03-20T15:04:36Z</time>
      </trkpt>
      <trkpt lat="47.2553" lon="4.91145">
        <ele>498.5</ele>
        <time>2018-03-20T15:04:45Z</time>
      </trkpt>
      <trkpt lat="47.25527" lon="4.91157">
        <ele>498.8</ele>
        <time>2018-03-20T15:04:52Z</time>
      </trkpt>
      <trkpt lat="47.25522" lon="4.91169">
        <ele>499.3</ele>
        <time>2018-03-20T15:05:00Z</time>
      </trkpt>
      <trkpt lat="47.25518" lon="4.91182">
        <ele>499.8</ele>
        <time>2018-03-20T15:05:07Z</time>
      </trkpt>
      <trkpt lat="47.25516" lon="4.91196">
        <ele>500.1</ele>
        <time>2018-03-20T15:05:17Z</time>
      </trkpt>
      <trkpt lat="47.25513" lon="4.91209">
        <ele>500.5</ele>
        <time>2018-03-20T15:05:27Z</time>
      </trkpt>
      <trkpt lat="47.25509" lon="4.91222">
        <ele>500.9</ele>
        <time>2018-03-20T15:05:35Z</time>
      </trkpt>
      <trkpt lat="47.25506" lon="4.91235">
        <ele>501.3</ele>
        <time>2018-03-20T15:05:45Z</time>
      </trkpt>
      <trkpt lat="47.25501" lon="4.91248">
        <ele>501.9</ele>
        <time>2018-03-20T15:05:53Z</time>
      </trkpt>
      <trkpt lat="47.25496" lon="4.91261">
        <ele>502.4</ele>
        <time>2018-03-20T15:06:01Z</time>
      </trkpt>
      <trkpt lat="47.2549" lon="4.91272">
        <ele>502.8</ele>
        <time>2018-03-20T15:06:12Z</time>
      </trkpt>
      <trkpt lat="47.25485" lon="4.91285">
        <ele>503.3</ele>
        <time>2018-03-20T15:06:20Z</time>
      </trkpt>
      <trkpt lat="47.25479" lon="4.91298">
        <ele>503.7</ele>
        <time>2018-03-20T15:06:29Z</time>
      </trkpt>
      <trkpt lat="47.25476" lon="4.91311">
        <ele>504.2</ele>
        <time>2018-03-20T15:06:38Z</time>
      </trkpt>
      <trkpt lat="47.25472" lon="4.91324">
        <ele>504.6</ele>
        <time>2018-03-20T15:06:50Z</time>
      </trkpt>
      <trkpt lat="47.25471" lon="4.91337">
        <ele>505</ele>
        <time>2018-03-20T15:06:56Z</time>
      </trkpt>
      <trkpt lat="47.25469" lon="4.91351">
        <ele>505</ele>
        <time>2018-03-20T15:07:06Z</time>
      </trkpt>
      <trkpt lat="47.25466" lon="4.91364">
        <ele>505</ele>
        <time>2018-03-20T15:07:14Z</time>
      </trkpt>
      <trkpt lat="47.25464" lon="4.91379">
        <ele>505</ele>
        <time>2018-03-20T15:07:24Z</time>
      </trkpt>
      <trkpt lat="47.25464" lon="4.91392">
        <ele>505</ele>
        <time>2018-03-20T15:07:33Z</time>
      </trkpt>
      <trkpt lat="47.25466" lon="4.91406">
        <ele>505</ele>
        <time>2018-03-20T15:07:43Z</time>
      </trkpt>
      <trkpt lat="47.25465" lon="4.91421">
        <ele>505.2</ele>
        <time>2018-03-20T15:07:52Z</time>
      </trkpt>
      <trkpt lat="47.25465" lon="4.91434">
        <ele>505.8</ele>
        <time>2018-03-20T15:08:01Z</time>
      </trkpt>
      <trkpt lat="47.25466" lon="4.91448">
        <ele>506.4</ele>
        <time>2018-03-20T15:08:11Z</time>
      </trkpt>
      <trkpt lat="47.25466" lon="4.91461">
        <ele>507.1</ele>
        <time>2018-03-20T15:08:29Z</time>
      </trkpt>
      <trkpt lat="47.25467" lon="4.91476">
        <ele>507.8</ele>
        <time>2018-03-20T15:08:40Z</time>
      </trkpt>
      <trkpt lat="47.2547" lon="4.91489">
        <ele>508.4</ele>
        <time>2018-03-20T15:08:50Z</time>
      </trkpt>
      <trkpt lat="47.25476" lon="4.91508">
        <ele>509</ele>
        <time>2018-03-20T15:09:00Z</time>
      </trkpt>
      <trkpt lat="47.25478" lon="4.91522">
        <ele>509</ele>
        <time>2018-03-20T15:09:06Z</time>
      </trkpt>
      <trkpt lat="47.25474" lon="4.91534">
        <ele>509</ele>
        <time>2018-03-20T15:09:18Z</time>
      </trkpt>
      <trkpt lat="47.25476" lon="4.91549">
        <ele>509</ele>
        <time>2018-03-20T15:09:25Z</time>
      </trkpt>
      <trkpt lat="47.2548" lon="4.91561">
        <ele>509</ele>
        <time>2018-03-20T15:09:32Z</time>
      </trkpt>
      <trkpt lat="47.25476" lon="4.91575">
        <ele>509</ele>
        <time>2018-03-20T15:09:46Z</time>
      </trkpt>
      <trkpt lat="47.25476" lon="4.91589">
        <ele>509.3</ele>
        <time>2018-03-20T15:09:56Z</time>
      </trkpt>
      <trkpt lat="47.25478" lon="4.91603">
        <ele>509.9</ele>
        <time>2018-03-20T15:10:03Z</time>
      </trkpt>
      <trkpt lat="47.25476" lon="4.91617">
        <ele>510.6</ele>
        <time>2018-03-20T15:10:16Z</time>
      </trkpt>
      <trkpt lat="47.25473" lon="4.9163">
        <ele>511.2</ele>
        <time>2018-03-20T15:10:22Z</time>
      </trkpt>
      <trkpt lat="47.25468" lon="4.91642">
        <ele>511.8</ele>
        <time>2018-03-20T15:10:37Z</time>
      </trkpt>
      <trkpt lat="47.25467" lon="4.91658">
        <ele>512.6</ele>
        <time>2018-03-20T15:10:45Z</time>
      </trkpt>
      <trkpt lat="47.25463" lon="4.91671">
        <ele>513</ele>
        <time>2018-03-20T15:10:50Z</time>
      </trkpt>
      <trkpt lat="47.25459" lon="4.91683">
        <ele>513</ele>
        <time>2018-03-20T15:10:58Z</time>
      </trkpt>
      <trkpt lat="47.25453" lon="4.91693">
        <ele>513</ele>
        <time>2018-03-20T15:11:06Z</time>
      </trkpt>
      <trkpt lat="47.25448" lon="4.91706">
        <ele>513</ele>
        <time>2018-03-20T15:11:17Z</time>
      </trkpt>
      <trkpt lat="47.25444" lon="4.9172">
        <ele>513</ele>
        <time>2018-03-20T15:11:30Z</time>
      </trkpt>
      <trkpt lat="47.25441" lon="4.91734">
        <ele>513</ele>
        <time>2018-03-20T15:11:38Z</time>
      </trkpt>
      <trkpt lat="47.25438" lon="4.91747">
        <ele>513</ele>
        <time>2018-03-20T15:11:47Z</time>
      </trkpt>
      <trkpt lat="47.25435" lon="4.91763">
        <ele>513.3</ele>
        <time>2018-03-20T15:11:59Z</time>
      </trkpt>
      <trkpt lat="47.25431" lon="4.91775">
        <ele>513.6</ele>
        <time>2018-03-20T15:12:09Z</time>
      </trkpt>
      <trkpt lat="47.2543" lon="4.91789">
        <ele>513.9</ele>
        <time>2018-03-20T15:12:15Z</time>
      </trkpt>
      <trkpt lat="47.25428" lon="4.91804">
        <ele>514.3</ele>
        <time>2018-03-20T15:12:26Z</time>
      </trkpt>
      <trkpt lat="47.25425" lon="4.91817">
        <ele>514.6</ele>
        <time>2018-03-20T15:12:37Z</time>
      </trkpt>
      <trkpt lat="47.25423" lon="4.91831">
        <ele>514.9</ele>
        <time>2018-03-20T15:12:46Z</time>
      </trkpt>
      <trkpt lat="47.25424" lon="4.91845">
        <ele>515</ele>
        <time>2018-03-20T15:12:59Z</time>
      </trkpt>
      <trkpt lat="47.25423" lon="4.91858">
        <ele>515</ele>
        <time>2018-03-20T15:13:06Z</time>
      </trkpt>
      <trkpt lat="47.25424" lon="4.91873">
        <ele>515</ele>
        <time>2018-03-20T15:13:15Z</time>
      </trkpt>
      <trkpt lat="47.25424" lon="4.91887">
        <ele>515</ele>
        <time>2018-03-20T15:13:25Z</time>
      </trkpt>
      <trkpt lat="47.25422" lon="4.91901">
        <ele>515</ele>
        <time>2018-03-20T15:13:33Z</time>
      </trkpt>
      <trkpt lat="47.2542" lon="4.91914">
        <ele>515</ele>
        <time>2018-03-20T15:13:41Z</time>
      </trkpt>
      <trkpt lat="47.25423" lon="4.91928">
        <ele>515.5</ele>
        <time>2018-03-20T15:13:53Z</time>
      </trkpt>
      <trkpt lat="47.25422" lon="4.91942">
        <ele>516.2</ele>
        <time>2018-03-20T15:14:01Z</time>
      </trkpt>
      <trkpt lat="47.25416" lon="4.91954">
        <ele>516.8</ele>
        <time>2018-03-20T15:14:14Z</time>
      </trkpt>
      <trkpt lat="47.25412" lon="4.91966">
        <ele>518.1</ele>
        <time>2018-03-20T15:14:19Z</time>
      </trkpt>
      <trkpt lat="47.25408" lon="4.91979">
        <ele>519.1</ele>
        <time>2018-03-20T15:14:25Z</time>
      </trkpt>
      <trkpt lat="47.25408" lon="4.91993">
        <ele>519.8</ele>
        <time>2018-03-20T15:14:36Z</time>
      </trkpt>
      <trkpt lat="47.25409" lon="4.92006">
        <ele>520.1</ele>
        <time>2018-03-20T15:14:44Z</time>
      </trkpt>
      <trkpt lat="47.2541" lon="4.9202">
        <ele>520</ele>
        <time>2018-03-20T15:14:53Z</time>
      </trkpt>
      <trkpt lat="47.25411" lon="4.92033">
        <ele>519.8</ele>
        <time>2018-03-20T15:15:04Z</time>
      </trkpt>
      <trkpt lat="47.25412" lon="4.92047">
        <ele>519.8</ele>
        <time>2018-03-20T15:15:12Z</time>
      </trkpt>
      <trkpt lat="47.25415" lon="4.9206">
        <ele>519.3</ele>
        <time>2018-03-20T15:15:22Z</time>
      </trkpt>
      <trkpt lat="47.25419" lon="4.92074">
        <ele>519</ele>
        <time>2018-03-20T15:15:29Z</time>
      </trkpt>
      <trkpt lat="47.25427" lon="4.92083">
        <ele>519</ele>
        <time>2018-03-20T15:15:35Z</time>
      </trkpt>
      <trkpt lat="47.2543" lon="4.92096">
        <ele>519.8</ele>
        <time>2018-03-20T15:15:39Z</time>
      </trkpt>
      <trkpt lat="47.25431" lon="4.9211">
        <ele>520.6</ele>
        <time>2018-03-20T15:15:51Z</time>
      </trkpt>
      <trkpt lat="47.25435" lon="4.92123">
        <ele>521.3</ele>
        <time>2018-03-20T15:15:59Z</time>
      </trkpt>
      <trkpt lat="47.25441" lon="4.92134">
        <ele>522</ele>
        <time>2018-03-20T15:16:06Z</time>
      </trkpt>
      <trkpt lat="47.25449" lon="4.92146">
        <ele>522.7</ele>
        <time>2018-03-20T15:16:20Z</time>
      </trkpt>
      <trkpt lat="47.25455" lon="4.92157">
        <ele>523.4</ele>
        <time>2018-03-20T15:16:29Z</time>
      </trkpt>
      <trkpt lat="47.2546" lon="4.92169">
        <ele>524</ele>
        <time>2018-03-20T15:16:38Z</time>
      </trkpt>
      <trkpt lat="47.25463" lon="4.92181">
        <ele>524</ele>
        <time>2018-03-20T15:16:48Z</time>
      </trkpt>
      <trkpt lat="47.25464" lon="4.92195">
        <ele>524</ele>
        <time>2018-03-20T15:16:57Z</time>
      </trkpt>
      <trkpt lat="47.25469" lon="4.92207">
        <ele>524</ele>
        <time>2018-03-20T15:17:08Z</time>
      </trkpt>
      <trkpt lat="47.25476" lon="4.92216">
        <ele>524</ele>
        <time>2018-03-20T15:17:17Z</time>
      </trkpt>
      <trkpt lat="47.25482" lon="4.92226">
        <ele>524</ele>
        <time>2018-03-20T15:17:27Z</time>
      </trkpt>
      <trkpt lat="47.25484" lon="4.9224">
        <ele>524</ele>
        <time>2018-03-20T15:17:36Z</time>
      </trkpt>
      <trkpt lat="47.25485" lon="4.92254">
        <ele>524.2</ele>
        <time>2018-03-20T15:17:43Z</time>
      </trkpt>
      <trkpt lat="47.25487" lon="4.92267">
        <ele>525.2</ele>
        <time>2018-03-20T15:17:50Z</time>
      </trkpt>
      <trkpt lat="47.25487" lon="4.92281">
        <ele>526.2</ele>
        <time>2018-03-20T15:17:58Z</time>
      </trkpt>
      <trkpt lat="47.25485" lon="4.92295">
        <ele>527.2</ele>
        <time>2018-03-20T15:18:05Z</time>
      </trkpt>
      <trkpt lat="47.25483" lon="4.92308">
        <ele>528.1</ele>
        <time>2018-03-20T15:18:16Z</time>
      </trkpt>
      <trkpt lat="47.25485" lon="4.92322">
        <ele>529.2</ele>
        <time>2018-03-20T15:18:24Z</time>
      </trkpt>
      <trkpt lat="47.25488" lon="4.92336">
        <ele>530</ele>
        <time>2018-03-20T15:18:30Z</time>
      </trkpt>
      <trkpt lat="47.2549" lon="4.9235">
        <ele>530</ele>
        <time>2018-03-20T15:18:38Z</time>
      </trkpt>
      <trkpt lat="47.25488" lon="4.92365">
        <ele>530</ele>
        <time>2018-03-20T15:18:45Z</time>
      </trkpt>
      <trkpt lat="47.25487" lon="4.92378">
        <ele>530</ele>
        <time>2018-03-20T15:18:54Z</time>
      </trkpt>
      <trkpt lat="47.25487" lon="4.92392">
        <ele>530</ele>
        <time>2018-03-20T15:19:03Z</time>
      </trkpt>
      <trkpt lat="47.25486" lon="4.92406">
        <ele>530</ele>
        <time>2018-03-20T15:19:12Z</time>
      </trkpt>
      <trkpt lat="47.25487" lon="4.92421">
        <ele>530.3</ele>
        <time>2018-03-20T15:19:21Z</time>
      </trkpt>
      <trkpt lat="47.25487" lon="4.92434">
        <ele>531.4</ele>
        <time>2018-03-20T15:19:30Z</time>
      </trkpt>
      <trkpt lat="47.25487" lon="4.92448">
        <ele>532.6</ele>
        <time>2018-03-20T15:19:37Z</time>
      </trkpt>
      <trkpt lat="47.25487" lon="4.92464">
        <ele>533.9</ele>
        <time>2018-03-20T15:19:45Z</time>
      </trkpt>
      <trkpt lat="47.25487" lon="4.92478">
        <ele>535.1</ele>
        <time>2018-03-20T15:19:53Z</time>
      </trkpt>
      <trkpt lat="47.25489" lon="4.92492">
        <ele>536.2</ele>
        <time>2018-03-20T15:20:04Z</time>
      </trkpt>
      <trkpt lat="47.25491" lon="4.92506">
        <ele>537</ele>
        <time>2018-03-20T15:20:14Z</time>
      </trkpt>
      <trkpt lat="47.25492" lon="4.9252">
        <ele>537</ele>
        <time>2018-03-20T15:20:20Z</time>
      </trkpt>
      <trkpt lat="47.25491" lon="4.92534">
        <ele>537</ele>
        <time>2018-03-20T15:20:29Z</time>
      </trkpt>
      <trkpt lat="47.2549" lon="4.92547">
        <ele>537</ele>
        <time>2018-03-20T15:20:38Z</time>
      </trkpt>
      <trkpt lat="47.2549" lon="4.92561">
        <ele>537</ele>
        <time>2018-03-20T15:20:48Z</time>
      </trkpt>
      <trkpt lat="47.25491" lon="4.92575">
        <ele>537</ele>
        <time>2018-03-20T15:20:58Z</time>
      </trkpt>
      <trkpt lat="47.25492" lon="4.92589">
        <ele>537.1</ele>
        <time>2018-03-20T15:21:07Z</time>
      </trkpt>
      <trkpt lat="47.2549" lon="4.92602">
        <ele>537.2</ele>
        <time>2018-03-20T15:21:14Z</time>
      </trkpt>
      <trkpt lat="47.2549" lon="4.92616">
        <ele>537.4</ele>
        <time>2018-03-20T15:21:24Z</time>
      </trkpt>
      <trkpt lat="47.25485" lon="4.92627">
        <ele>537.5</ele>
        <time>2018-03-20T15:22:10Z</time>
      </trkpt>
      <trkpt lat="47.25487" lon="4.9264">
        <ele>537.7</ele>
        <time>2018-03-20T15:22:51Z</time>
      </trkpt>
      <trkpt lat="47.25483" lon="4.92652">
        <ele>537.8</ele>
        <time>2018-03-20T15:25:42Z</time>
      </trkpt>
      <trkpt lat="47.25485" lon="4.92666">
        <ele>538</ele>
        <time>2018-03-20T15:25:56Z</time>
      </trkpt>
      <trkpt lat="47.25482" lon="4.92681">
        <ele>538</ele>
        <time>2018-03-20T15:28:45Z</time>
      </trkpt>
      <trkpt lat="47.25478" lon="4.92694">
        <ele>538</ele>
        <time>2018-03-20T15:28:57Z</time>
      </trkpt>
      <trkpt lat="47.25474" lon="4.92706">
        <ele>538</ele>
        <time>2018-03-20T15:29:02Z</time>
      </trkpt>
      <trkpt lat="47.25469" lon="4.9272">
        <ele>538</ele>
        <time>2018-03-20T15:29:09Z</time>
      </trkpt>
      <trkpt lat="47.25466" lon="4.92733">
        <ele>538</ele>
        <time>2018-03-20T15:29:14Z</time>
      </trkpt>
      <trkpt lat="47.25462" lon="4.92745">
        <ele>538</ele>
        <time>2018-03-20T15:29:22Z</time>
      </trkpt>
      <trkpt lat="47.25461" lon="4.9276">
        <ele>537.7</ele>
        <time>2018-03-20T15:29:31Z</time>
      </trkpt>
      <trkpt lat="47.25458" lon="4.92775">
        <ele>537.1</ele>
        <time>2018-03-20T15:29:42Z</time>
      </trkpt>
      <trkpt lat="47.25455" lon="4.92788">
        <ele>536.6</ele>
        <time>2018-03-20T15:29:48Z</time>
      </trkpt>
      <trkpt lat="47.25453" lon="4.92802">
        <ele>536.2</ele>
        <time>2018-03-20T15:29:58Z</time>
      </trkpt>
      <trkpt lat="47.25449" lon="4.92813">
        <ele>535.7</ele>
        <time>2018-03-20T15:30:05Z</time>
      </trkpt>
      <trkpt lat="47.25445" lon="4.92826">
        <ele>535.3</ele>
        <time>2018-03-20T15:30:14Z</time>
      </trkpt>
      <trkpt lat="47.25442" lon="4.92838">
        <ele>535</ele>
        <time>2018-03-20T15:30:21Z</time>
      </trkpt>
      <trkpt lat="47.25439" lon="4.92851">
        <ele>535</ele>
        <time>2018-03-20T15:30:27Z</time>
      </trkpt>
      <trkpt lat="47.25437" lon="4.92865">
        <ele>535</ele>
        <time>2018-03-20T15:30:35Z</time>
      </trkpt>
      <trkpt lat="47.25434" lon="4.92878">
        <ele>535</ele>
        <time>2018-03-20T15:30:44Z</time>
      </trkpt>
      <trkpt lat="47.25432" lon="4.92892">
        <ele>535</ele>
        <time>2018-03-20T15:30:51Z</time>
      </trkpt>
      <trkpt lat="47.25427" lon="4.92905">
        <ele>535</ele>
        <time>2018-03-20T15:30:58Z</time>
      </trkpt>
      <trkpt lat="47.25424" lon="4.92919">
        <ele>534.9</ele>
        <time>2018-03-20T15:31:05Z</time>
      </trkpt>
      <trkpt lat="47.25422" lon="4.92933">
        <ele>533.9</ele>
        <time>2018-03-20T15:31:13Z</time>
      </trkpt>
      <trkpt lat="47.25416" lon="4.92946">
        <ele>532.9</ele>
        <time>2018-03-20T15:31:22Z</time>
      </trkpt>
      <trkpt lat="47.25407" lon="4.92948">
        <ele>532.5</ele>
        <time>2018-03-20T15:31:29Z</time>
      </trkpt>
      <trkpt lat="47.25397" lon="4.92947">
        <ele>532.3</ele>
        <time>2018-03-20T15:31:35Z</time>
      </trkpt>
      <trkpt lat="47.25388" lon="4.92942">
        <ele>532.3</ele>
        <time>2018-03-20T15:31:43Z</time>
      </trkpt>
      <trkpt lat="47.25378" lon="4.92937">
        <ele>532.3</ele>
        <time>2018-03-20T15:31:52Z</time>
      </trkpt>
      <trkpt lat="47.25368" lon="4.92934">
        <ele>532.1</ele>
        <time>2018-03-20T15:32:01Z</time>
      </trkpt>
      <trkpt lat="47.25358" lon="4.92931">
        <ele>531.8</ele>
        <time>2018-03-20T15:32:10Z</time>
      </trkpt>
      <trkpt lat="47.25349" lon="4.92931">
        <ele>531.4</ele>
        <time>2018-03-20T15:32:16Z</time>
      </trkpt>
      <trkpt lat="47.2534" lon="4.92927">
        <ele>531.1</ele>
        <time>2018-03-20T15:32:25Z</time>
      </trkpt>
      <trkpt lat="47.25331" lon="4.92925">
        <ele>530.9</ele>
        <time>2018-03-20T15:32:32Z</time>
      </trkpt>
      <trkpt lat="47.25321" lon="4.92925">
        <ele>530.8</ele>
        <time>2018-03-20T15:32:39Z</time>
      </trkpt>
      <trkpt lat="47.25312" lon="4.92925">
        <ele>530.7</ele>
        <time>2018-03-20T15:32:46Z</time>
      </trkpt>
      <trkpt lat="47.25303" lon="4.92922">
        <ele>530.6</ele>
        <time>2018-03-20T15:32:53Z</time>
      </trkpt>
      <trkpt lat="47.25293" lon="4.92923">
        <ele>530.5</ele>
        <time>2018-03-20T15:33:00Z</time>
      </trkpt>
      <trkpt lat="47.25284" lon="4.9292">
        <ele>530.4</ele>
        <time>2018-03-20T15:33:08Z</time>
      </trkpt>
      <trkpt lat="47.25274" lon="4.92918">
        <ele>530.3</ele>
        <time>2018-03-20T15:33:16Z</time>
      </trkpt>
      <trkpt lat="47.25264" lon="4.92918">
        <ele>530.2</ele>
        <time>2018-03-20T15:33:23Z</time>
      </trkpt>
      <trkpt lat="47.25255" lon="4.92918">
        <ele>530.1</ele>
        <time>2018-03-20T15:33:31Z</time>
      </trkpt>
      <trkpt lat="47.25246" lon="4.92915">
        <ele>529.9</ele>
        <time>2018-03-20T15:33:39Z</time>
      </trkpt>
      <trkpt lat="47.25236" lon="4.92914">
        <ele>529.6</ele>
        <time>2018-03-20T15:33:47Z</time>
      </trkpt>
      <trkpt lat="47.25227" lon="4.9292">
        <ele>529.5</ele>
        <time>2018-03-20T15:33:55Z</time>
      </trkpt>
      <trkpt lat="47.25219" lon="4.92916">
        <ele>529.2</ele>
        <time>2018-03-20T15:34:03Z</time>
      </trkpt>
      <trkpt lat="47.25209" lon="4.92914">
        <ele>528.9</ele>
        <time>2018-03-20T15:34:10Z</time>
      </trkpt>
      <trkpt lat="47.25199" lon="4.92909">
        <ele>528.6</ele>
        <time>2018-03-20T15:34:17Z</time>
      </trkpt>
      <trkpt lat="47.25189" lon="4.92908">
        <ele>528.3</ele>
        <time>2018-03-20T15:34:25Z</time>
      </trkpt>
      <trkpt lat="47.2518" lon="4.92905">
        <ele>527.9</ele>
        <time>2018-03-20T15:34:32Z</time>
      </trkpt>
      <trkpt lat="47.2517" lon="4.92902">
        <ele>527.5</ele>
        <time>2018-03-20T15:34:40Z</time>
      </trkpt>
      <trkpt lat="47.2516" lon="4.92899">
        <ele>527.2</ele>
        <time>2018-03-20T15:34:49Z</time>
      </trkpt>
      <trkpt lat="47.2515" lon="4.92897">
        <ele>526.9</ele>
        <time>2018-03-20T15:34:56Z</time>
      </trkpt>
      <trkpt lat="47.25141" lon="4.92893">
        <ele>526.6</ele>
        <time>2018-03-20T15:35:04Z</time>
      </trkpt>
      <trkpt lat="47.25131" lon="4.92891">
        <ele>526.3</ele>
        <time>2018-03-20T15:35:14Z</time>
      </trkpt>
      <trkpt lat="47.25123" lon="4.92886">
        <ele>526</ele>
        <time>2018-03-20T15:35:22Z</time>
      </trkpt>
      <trkpt lat="47.25114" lon="4.92883">
        <ele>525.8</ele>
        <time>2018-03-20T15:35:31Z</time>
      </trkpt>
      <trkpt lat="47.25105" lon="4.92881">
        <ele>525.6</ele>
        <time>2018-03-20T15:35:46Z</time>
      </trkpt>
      <trkpt lat="47.25096" lon="4.92875">
        <ele>525.2</ele>
        <time>2018-03-20T15:35:55Z</time>
      </trkpt>
      <trkpt lat="47.25087" lon="4.92869">
        <ele>524.9</ele>
        <time>2018-03-20T15:36:04Z</time>
      </trkpt>
      <trkpt lat="47.25078" lon="4.92864">
        <ele>524.8</ele>
        <time>2018-03-20T15:36:13Z</time>
      </trkpt>
      <trkpt lat="47.25071" lon="4.92855">
        <ele>524.6</ele>
        <time>2018-03-20T15:36:20Z</time>
      </trkpt>
      <trkpt lat="47.25064" lon="4.92846">
        <ele>524.5</ele>
        <time>2018-03-20T15:36:28Z</time>
      </trkpt>
      <trkpt lat="47.25056" lon="4.92839">
        <ele>524.4</ele>
        <time>2018-03-20T15:36:38Z</time>
      </trkpt>
      <trkpt lat="47.25048" lon="4.92831">
        <ele>524.4</ele>
        <time>2018-03-20T15:36:47Z</time>
      </trkpt>
      <trkpt lat="47.2504" lon="4.92824">
        <ele>524.4</ele>
        <time>2018-03-20T15:36:56Z</time>
      </trkpt>
      <trkpt lat="47.25031" lon="4.92819">
        <ele>524.4</ele>
        <time>2018-03-20T15:37:03Z</time>
      </trkpt>
      <trkpt lat="47.25023" lon="4.92812">
        <ele>524.5</ele>
        <time>2018-03-20T15:37:12Z</time>
      </trkpt>
      <trkpt lat="47.25014" lon="4.92805">
        <ele>524.5</ele>
        <time>2018-03-20T15:37:20Z</time>
      </trkpt>
      <trkpt lat="47.25006" lon="4.92799">
        <ele>524.5</ele>
        <time>2018-03-20T15:37:28Z</time>
      </trkpt>
      <trkpt lat="47.24997" lon="4.92791">
        <ele>524.5</ele>
        <time>2018-03-20T15:37:38Z</time>
      </trkpt>
      <trkpt lat="47.24989" lon="4.92784">
        <ele>524.7</ele>
        <time>2018-03-20T15:37:46Z</time>
      </trkpt>
      <trkpt lat="47.24981" lon="4.92777">
        <ele>524.8</ele>
        <time>2018-03-20T15:37:53Z</time>
      </trkpt>
      <trkpt lat="47.24972" lon="4.9277">
        <ele>524.9</ele>
        <time>2018-03-20T15:38:01Z</time>
      </trkpt>
      <trkpt lat="47.24965" lon="4.92759">
        <ele>524.9</ele>
        <time>2018-03-20T15:38:09Z</time>
      </trkpt>
      <trkpt lat="47.24956" lon="4.92754">
        <ele>525.1</ele>
        <time>2018-03-20T15:38:18Z</time>
      </trkpt>
      <trkpt lat="47.24947" lon="4.92748">
        <ele>525.3</ele>
        <time>2018-03-20T15:38:26Z</time>
      </trkpt>
      <trkpt lat="47.24938" lon="4.92744">
        <ele>525.5</ele>
        <time>2018-03-20T15:38:33Z</time>
      </trkpt>
      <trkpt lat="47.2493" lon="4.92736">
        <ele>525.7</ele>
        <time>2018-03-20T15:38:39Z</time>
      </trkpt>
      <trkpt lat="47.24921" lon="4.92731">
        <ele>525.9</ele>
        <time>2018-03-20T15:38:47Z</time>
      </trkpt>
      <trkpt lat="47.24912" lon="4.92728">
        <ele>526.2</ele>
        <time>2018-03-20T15:38:57Z</time>
      </trkpt>
      <trkpt lat="47.24903" lon="4.92725">
        <ele>526.5</ele>
        <time>2018-03-20T15:39:04Z</time>
      </trkpt>
      <trkpt lat="47.24893" lon="4.92723">
        <ele>526.8</ele>
        <time>2018-03-20T15:39:13Z</time>
      </trkpt>
      <trkpt lat="47.24884" lon="4.92717">
        <ele>527.2</ele>
        <time>2018-03-20T15:39:20Z</time>
      </trkpt>
      <trkpt lat="47.24876" lon="4.92711">
        <ele>527.5</ele>
        <time>2018-03-20T15:39:29Z</time>
      </trkpt>
      <trkpt lat="47.24867" lon="4.92706">
        <ele>527.8</ele>
        <time>2018-03-20T15:39:37Z</time>
      </trkpt>
      <trkpt lat="47.24858" lon="4.92701">
        <ele>528.1</ele>
        <time>2018-03-20T15:39:45Z</time>
      </trkpt>
      <trkpt lat="47.24851" lon="4.92693">
        <ele>528.4</ele>
        <time>2018-03-20T15:39:50Z</time>
      </trkpt>
      <trkpt lat="47.24842" lon="4.92685">
        <ele>528.7</ele>
        <time>2018-03-20T15:39:57Z</time>
      </trkpt>
      <trkpt lat="47.24833" lon="4.92681">
        <ele>529</ele>
        <time>2018-03-20T15:40:06Z</time>
      </trkpt>
      <trkpt lat="47.24824" lon="4.92677">
        <ele>529.3</ele>
        <time>2018-03-20T15:40:15Z</time>
      </trkpt>
      <trkpt lat="47.24814" lon="4.92672">
        <ele>529.5</ele>
        <time>2018-03-20T15:40:25Z</time>
      </trkpt>
      <trkpt lat="47.24806" lon="4.92667">
        <ele>529.7</ele>
        <time>2018-03-20T15:40:33Z</time>
      </trkpt>
      <trkpt lat="47.24796" lon="4.92664">
        <ele>529.9</ele>
        <time>2018-03-20T15:40:40Z</time>
      </trkpt>
      <trkpt lat="47.24787" lon="4.92659">
        <ele>530.1</ele>
        <time>2018-03-20T15:40:47Z</time>
      </trkpt>
      <trkpt lat="47.24778" lon="4.92653">
        <ele>530.4</ele>
        <time>2018-03-20T15:40:56Z</time>
      </trkpt>
      <trkpt lat="47.2477" lon="4.92647">
        <ele>530.6</ele>
        <time>2018-03-20T15:41:04Z</time>
      </trkpt>
      <trkpt lat="47.2476" lon="4.92644">
        <ele>530.8</ele>
        <time>2018-03-20T15:41:14Z</time>
      </trkpt>
      <trkpt lat="47.2475" lon="4.92642">
        <ele>531</ele>
        <time>2018-03-20T15:41:21Z</time>
      </trkpt>
      <trkpt lat="47.24742" lon="4.92636">
        <ele>531.3</ele>
        <time>2018-03-20T15:41:29Z</time>
      </trkpt>
      <trkpt lat="47.24734" lon="4.92629">
        <ele>531.6</ele>
        <time>2018-03-20T15:41:36Z</time>
      </trkpt>
      <trkpt lat="47.24725" lon="4.92622">
        <ele>531.9</ele>
        <time>2018-03-20T15:41:43Z</time>
      </trkpt>
      <trkpt lat="47.24717" lon="4.92614">
        <ele>532.2</ele>
        <time>2018-03-20T15:41:53Z</time>
      </trkpt>
      <trkpt lat="47.24708" lon="4.92611">
        <ele>532.5</ele>
        <time>2018-03-20T15:42:00Z</time>
      </trkpt>
      <trkpt lat="47.24698" lon="4.92607">
        <ele>532.9</ele>
        <time>2018-03-20T15:42:07Z</time>
      </trkpt>
      <trkpt lat="47.2469" lon="4.92599">
        <ele>533.2</ele>
        <time>2018-03-20T15:42:14Z</time>
      </trkpt>
      <trkpt lat="47.24682" lon="4.9259">
        <ele>533.5</ele>
        <time>2018-03-20T15:42:24Z</time>
      </trkpt>
      <trkpt lat="47.24675" lon="4.9258">
        <ele>533.7</ele>
        <time>2018-03-20T15:42:31Z</time>
      </trkpt>
      <trkpt lat="47.24666" lon="4.92574">
        <ele>533.9</ele>
        <time>2018-03-20T15:42:38Z</time>
      </trkpt>
      <trkpt lat="47.24659" lon="4.92564">
        <ele>533.9</ele>
        <time>2018-03-20T15:42:47Z</time>
      </trkpt>
      <trkpt lat="47.24648" lon="4.9256">
        <ele>534</ele>
        <time>2018-03-20T15:42:55Z</time>
      </trkpt>
      <trkpt lat="47.24639" lon="4.92556">
        <ele>534.1</ele>
        <time>2018-03-20T15:43:01Z</time>
      </trkpt>
      <trkpt lat="47.24631" lon="4.9255">
        <ele>534.2</ele>
        <time>2018-03-20T15:43:09Z</time>
      </trkpt>
      <trkpt lat="47.24622" lon="4.92541">
        <ele>534.3</ele>
        <time>2018-03-20T15:43:18Z</time>
      </trkpt>
      <trkpt lat="47.24617" lon="4.9253">
        <ele>534.3</ele>
        <time>2018-03-20T15:43:22Z</time>
      </trkpt>
      <trkpt lat="47.24609" lon="4.92522">
        <ele>534.5</ele>
        <time>2018-03-20T15:43:31Z</time>
      </trkpt>
      <trkpt lat="47.24599" lon="4.92517">
        <ele>534.7</ele>
        <time>2018-03-20T15:43:38Z</time>
      </trkpt>
      <trkpt lat="47.2459" lon="4.92516">
        <ele>534.8</ele>
        <time>2018-03-20T15:43:43Z</time>
      </trkpt>
      <trkpt lat="47.24581" lon="4.92515">
        <ele>535.1</ele>
        <time>2018-03-20T15:43:51Z</time>
      </trkpt>
      <trkpt lat="47.24572" lon="4.92508">
        <ele>535.4</ele>
        <time>2018-03-20T15:44:02Z</time>
      </trkpt>
      <trkpt lat="47.24564" lon="4.92502">
        <ele>535.7</ele>
        <time>2018-03-20T15:44:09Z</time>
      </trkpt>
      <trkpt lat="47.24555" lon="4.92497">
        <ele>536</ele>
        <time>2018-03-20T15:44:15Z</time>
      </trkpt>
      <trkpt lat="47.24546" lon="4.92491">
        <ele>536.4</ele>
        <time>2018-03-20T15:44:25Z</time>
      </trkpt>
      <trkpt lat="47.24537" lon="4.92485">
        <ele>536.7</ele>
        <time>2018-03-20T15:44:32Z</time>
      </trkpt>
      <trkpt lat="47.24527" lon="4.92482">
        <ele>537.1</ele>
        <time>2018-03-20T15:44:39Z</time>
      </trkpt>
      <trkpt lat="47.24518" lon="4.92482">
        <ele>537.4</ele>
        <time>2018-03-20T15:44:45Z</time>
      </trkpt>
      <trkpt lat="47.24507" lon="4.92481">
        <ele>537.8</ele>
        <time>2018-03-20T15:44:52Z</time>
      </trkpt>
      <trkpt lat="47.24498" lon="4.92478">
        <ele>538</ele>
        <time>2018-03-20T15:45:00Z</time>
      </trkpt>
      <trkpt lat="47.24489" lon="4.92472">
        <ele>537.8</ele>
        <time>2018-03-20T15:45:11Z</time>
      </trkpt>
      <trkpt lat="47.2448" lon="4.92471">
        <ele>537.7</ele>
        <time>2018-03-20T15:45:18Z</time>
      </trkpt>
      <trkpt lat="47.24471" lon="4.92472">
        <ele>537.5</ele>
        <time>2018-03-20T15:45:24Z</time>
      </trkpt>
      <trkpt lat="47.24464" lon="4.92464">
        <ele>537.4</ele>
        <time>2018-03-20T15:45:31Z</time>
      </trkpt>
      <trkpt lat="47.24455" lon="4.92461">
        <ele>537.2</ele>
        <time>2018-03-20T15:45:41Z</time>
      </trkpt>
      <trkpt lat="47.24445" lon="4.92465">
        <ele>537.1</ele>
        <time>2018-03-20T15:45:49Z</time>
      </trkpt>
      <trkpt lat="47.24436" lon="4.9247">
        <ele>537</ele>
        <time>2018-03-20T15:45:56Z</time>
      </trkpt>
      <trkpt lat="47.24427" lon="4.92474">
        <ele>536.9</ele>
        <time>2018-03-20T15:46:38Z</time>
      </trkpt>
      <trkpt lat="47.24434" lon="4.92485">
        <ele>537.1</ele>
        <time>2018-03-20T15:47:34Z</time>
      </trkpt>
      <trkpt lat="47.24442" lon="4.92494">
        <ele>537.2</ele>
        <time>2018-03-20T15:47:48Z</time>
      </trkpt>
      <trkpt lat="47.24434" lon="4.92487">
        <ele>537.1</ele>
        <time>2018-03-20T15:48:24Z</time>
      </trkpt>
      <trkpt lat="47.24432" lon="4.92473">
        <ele>536.9</ele>
        <time>2018-03-20T15:48:39Z</time>
      </trkpt>
      <trkpt lat="47.24424" lon="4.92467">
        <ele>536.7</ele>
        <time>2018-03-20T15:50:12Z</time>
      </trkpt>
      <trkpt lat="47.24414" lon="4.92472">
        <ele>536.5</ele>
        <time>2018-03-20T15:51:02Z</time>
      </trkpt>
      <trkpt lat="47.24405" lon="4.92472">
        <ele>535.6</ele>
        <time>2018-03-20T15:51:12Z</time>
      </trkpt>
      <trkpt lat="47.24395" lon="4.92469">
        <ele>534.7</ele>
        <time>2018-03-20T15:51:20Z</time>
      </trkpt>
      <trkpt lat="47.24386" lon="4.92466">
        <ele>533.9</ele>
        <time>2018-03-20T15:51:28Z</time>
      </trkpt>
      <trkpt lat="47.24377" lon="4.92465">
        <ele>533</ele>
        <time>2018-03-20T15:51:36Z</time>
      </trkpt>
      <trkpt lat="47.24367" lon="4.92465">
        <ele>532.2</ele>
        <time>2018-03-20T15:51:44Z</time>
      </trkpt>
      <trkpt lat="47.24358" lon="4.92464">
        <ele>531.3</ele>
        <time>2018-03-20T15:51:51Z</time>
      </trkpt>
      <trkpt lat="47.24349" lon="4.92462">
        <ele>530.5</ele>
        <time>2018-03-20T15:51:58Z</time>
      </trkpt>
      <trkpt lat="47.24341" lon="4.92458">
        <ele>529.6</ele>
        <time>2018-03-20T15:52:05Z</time>
      </trkpt>
      <trkpt lat="47.24332" lon="4.92457">
        <ele>528.9</ele>
        <time>2018-03-20T15:52:13Z</time>
      </trkpt>
      <trkpt lat="47.24322" lon="4.92457">
        <ele>528.3</ele>
        <time>2018-03-20T15:52:20Z</time>
      </trkpt>
      <trkpt lat="47.24313" lon="4.92457">
        <ele>527.8</ele>
        <time>2018-03-20T15:52:28Z</time>
      </trkpt>
      <trkpt lat="47.24304" lon="4.92455">
        <ele>527.1</ele>
        <time>2018-03-20T15:52:38Z</time>
      </trkpt>
      <trkpt lat="47.24295" lon="4.92449">
        <ele>526.6</ele>
        <time>2018-03-20T15:52:44Z</time>
      </trkpt>
      <trkpt lat="47.24286" lon="4.92449">
        <ele>526</ele>
        <time>2018-03-20T15:52:53Z</time>
      </trkpt>
      <trkpt lat="47.24276" lon="4.92447">
        <ele>525.5</ele>
        <time>2018-03-20T15:53:03Z</time>
      </trkpt>
      <trkpt lat="47.24266" lon="4.92445">
        <ele>524.9</ele>
        <time>2018-03-20T15:53:14Z</time>
      </trkpt>
      <trkpt lat="47.24256" lon="4.92442">
        <ele>524.3</ele>
        <time>2018-03-20T15:53:21Z</time>
      </trkpt>
      <trkpt lat="47.24246" lon="4.92443">
        <ele>523.7</ele>
        <time>2018-03-20T15:53:29Z</time>
      </trkpt>
      <trkpt lat="47.24237" lon="4.92441">
        <ele>523</ele>
        <time>2018-03-20T15:53:34Z</time>
      </trkpt>
      <trkpt lat="47.24227" lon="4.92439">
        <ele>522.4</ele>
        <time>2018-03-20T15:53:39Z</time>
      </trkpt>
      <trkpt lat="47.24218" lon="4.92438">
        <ele>521.7</ele>
        <time>2018-03-20T15:53:46Z</time>
      </trkpt>
      <trkpt lat="47.24209" lon="4.92439">
        <ele>521</ele>
        <time>2018-03-20T15:53:52Z</time>
      </trkpt>
      <trkpt lat="47.24199" lon="4.92439">
        <ele>520.3</ele>
        <time>2018-03-20T15:53:59Z</time>
      </trkpt>
      <trkpt lat="47.24188" lon="4.92439">
        <ele>519.6</ele>
        <time>2018-03-20T15:54:10Z</time>
      </trkpt>
      <trkpt lat="47.24179" lon="4.92436">
        <ele>518.9</ele>
        <time>2018-03-20T15:54:17Z</time>
      </trkpt>
      <trkpt lat="47.2417" lon="4.92435">
        <ele>518.2</ele>
        <time>2018-03-20T15:54:27Z</time>
      </trkpt>
      <trkpt lat="47.2416" lon="4.92433">
        <ele>518</ele>
        <time>2018-03-20T15:54:33Z</time>
      </trkpt>
      <trkpt lat="47.24151" lon="4.92429">
        <ele>518</ele>
        <time>2018-03-20T15:54:41Z</time>
      </trkpt>
      <trkpt lat="47.24142" lon="4.92429">
        <ele>518</ele>
        <time>2018-03-20T15:54:48Z</time>
      </trkpt>
      <trkpt lat="47.24131" lon="4.92429">
        <ele>517.9</ele>
        <time>2018-03-20T15:54:54Z</time>
      </trkpt>
      <trkpt lat="47.24122" lon="4.92427">
        <ele>517.9</ele>
        <time>2018-03-20T15:55:01Z</time>
      </trkpt>
      <trkpt lat="47.24113" lon="4.92427">
        <ele>517.9</ele>
        <time>2018-03-20T15:55:09Z</time>
      </trkpt>
      <trkpt lat="47.24103" lon="4.92426">
        <ele>517.9</ele>
        <time>2018-03-20T15:55:18Z</time>
      </trkpt>
      <trkpt lat="47.24093" lon="4.92426">
        <ele>517.9</ele>
        <time>2018-03-20T15:55:27Z</time>
      </trkpt>
      <trkpt lat="47.24084" lon="4.92428">
        <ele>517.9</ele>
        <time>2018-03-20T15:55:34Z</time>
      </trkpt>
      <trkpt lat="47.24074" lon="4.92427">
        <ele>517.9</ele>
        <time>2018-03-20T15:55:42Z</time>
      </trkpt>
      <trkpt lat="47.24065" lon="4.92422">
        <ele>518</ele>
        <time>2018-03-20T15:55:50Z</time>
      </trkpt>
      <trkpt lat="47.24057" lon="4.92416">
        <ele>518</ele>
        <time>2018-03-20T15:56:01Z</time>
      </trkpt>
      <trkpt lat="47.24047" lon="4.92418">
        <ele>518</ele>
        <time>2018-03-20T15:56:10Z</time>
      </trkpt>
      <trkpt lat="47.24038" lon="4.92419">
        <ele>518</ele>
        <time>2018-03-20T15:56:20Z</time>
      </trkpt>
      <trkpt lat="47.2403" lon="4.92411">
        <ele>518</ele>
        <time>2018-03-20T15:56:28Z</time>
      </trkpt>
      <trkpt lat="47.24022" lon="4.92401">
        <ele>518.1</ele>
        <time>2018-03-20T15:56:34Z</time>
      </trkpt>
      <trkpt lat="47.24015" lon="4.92391">
        <ele>518.3</ele>
        <time>2018-03-20T15:56:40Z</time>
      </trkpt>
      <trkpt lat="47.2401" lon="4.92379">
        <ele>518.4</ele>
        <time>2018-03-20T15:56:47Z</time>
      </trkpt>
      <trkpt lat="47.24003" lon="4.9237">
        <ele>518.5</ele>
        <time>2018-03-20T15:56:54Z</time>
      </trkpt>
      <trkpt lat="47.23995" lon="4.9236">
        <ele>518.7</ele>
        <time>2018-03-20T15:57:01Z</time>
      </trkpt>
      <trkpt lat="47.23988" lon="4.9235">
        <ele>518.9</ele>
        <time>2018-03-20T15:57:09Z</time>
      </trkpt>
      <trkpt lat="47.23982" lon="4.9234">
        <ele>519</ele>
        <time>2018-03-20T15:57:17Z</time>
      </trkpt>
      <trkpt lat="47.23977" lon="4.92328">
        <ele>519</ele>
        <time>2018-03-20T15:57:24Z</time>
      </trkpt>
      <trkpt lat="47.2397" lon="4.92319">
        <ele>518.9</ele>
        <time>2018-03-20T15:57:31Z</time>
      </trkpt>
      <trkpt lat="47.23963" lon="4.9231">
        <ele>518.7</ele>
        <time>2018-03-20T15:57:40Z</time>
      </trkpt>
      <trkpt lat="47.23958" lon="4.92299">
        <ele>518.6</ele>
        <time>2018-03-20T15:57:48Z</time>
      </trkpt>
      <trkpt lat="47.23951" lon="4.92289">
        <ele>518.4</ele>
        <time>2018-03-20T15:57:55Z</time>
      </trkpt>
      <trkpt lat="47.23945" lon="4.92278">
        <ele>518.1</ele>
        <time>2018-03-20T15:58:04Z</time>
      </trkpt>
      <trkpt lat="47.2394" lon="4.92266">
        <ele>517.8</ele>
        <time>2018-03-20T15:58:12Z</time>
      </trkpt>
      <trkpt lat="47.23933" lon="4.92255">
        <ele>517.5</ele>
        <time>2018-03-20T15:58:19Z</time>
      </trkpt>
      <trkpt lat="47.23927" lon="4.92244">
        <ele>517.4</ele>
        <time>2018-03-20T15:58:27Z</time>
      </trkpt>
      <trkpt lat="47.23919" lon="4.92233">
        <ele>517.5</ele>
        <time>2018-03-20T15:58:35Z</time>
      </trkpt>
      <trkpt lat="47.2391" lon="4.92226">
        <ele>517.6</ele>
        <time>2018-03-20T15:58:42Z</time>
      </trkpt>
      <trkpt lat="47.23904" lon="4.92216">
        <ele>517.8</ele>
        <time>2018-03-20T15:58:49Z</time>
      </trkpt>
      <trkpt lat="47.23898" lon="4.92205">
        <ele>517.9</ele>
        <time>2018-03-20T15:58:58Z</time>
      </trkpt>
      <trkpt lat="47.23892" lon="4.92195">
        <ele>517.9</ele>
        <time>2018-03-20T15:59:05Z</time>
      </trkpt>
      <trkpt lat="47.23885" lon="4.92184">
        <ele>517.8</ele>
        <time>2018-03-20T15:59:13Z</time>
      </trkpt>
      <trkpt lat="47.23878" lon="4.92174">
        <ele>517.6</ele>
        <time>2018-03-20T15:59:20Z</time>
      </trkpt>
      <trkpt lat="47.23869" lon="4.92167">
        <ele>517.3</ele>
        <time>2018-03-20T15:59:28Z</time>
      </trkpt>
      <trkpt lat="47.23863" lon="4.92159">
        <ele>517</ele>
        <time>2018-03-20T15:59:35Z</time>
      </trkpt>
      <trkpt lat="47.23855" lon="4.92152">
        <ele>516.7</ele>
        <time>2018-03-20T15:59:44Z</time>
      </trkpt>
      <trkpt lat="47.23846" lon="4.92146">
        <ele>516.3</ele>
        <time>2018-03-20T15:59:52Z</time>
      </trkpt>
      <trkpt lat="47.23838" lon="4.9214">
        <ele>515.9</ele>
        <time>2018-03-20T16:00:01Z</time>
      </trkpt>
      <trkpt lat="47.23828" lon="4.92135">
        <ele>515.5</ele>
        <time>2018-03-20T16:00:10Z</time>
      </trkpt>
      <trkpt lat="47.2382" lon="4.92127">
        <ele>515.3</ele>
        <time>2018-03-20T16:00:16Z</time>
      </trkpt>
      <trkpt lat="47.23813" lon="4.92118">
        <ele>515</ele>
        <time>2018-03-20T16:00:23Z</time>
      </trkpt>
      <trkpt lat="47.23805" lon="4.9211">
        <ele>514.6</ele>
        <time>2018-03-20T16:00:32Z</time>
      </trkpt>
      <trkpt lat="47.23796" lon="4.92105">
        <ele>514.2</ele>
        <time>2018-03-20T16:00:40Z</time>
      </trkpt>
      <trkpt lat="47.23787" lon="4.92098">
        <ele>513.8</ele>
        <time>2018-03-20T16:00:49Z</time>
      </trkpt>
      <trkpt lat="47.23778" lon="4.92093">
        <ele>513.3</ele>
        <time>2018-03-20T16:00:57Z</time>
      </trkpt>
      <trkpt lat="47.2377" lon="4.92085">
        <ele>512.8</ele>
        <time>2018-03-20T16:01:04Z</time>
      </trkpt>
      <trkpt lat="47.23764" lon="4.92074">
        <ele>512.3</ele>
        <time>2018-03-20T16:01:12Z</time>
      </trkpt>
      <trkpt lat="47.23758" lon="4.92065">
        <ele>511.9</ele>
        <time>2018-03-20T16:01:19Z</time>
      </trkpt>
      <trkpt lat="47.23749" lon="4.92058">
        <ele>511.4</ele>
        <time>2018-03-20T16:01:28Z</time>
      </trkpt>
      <trkpt lat="47.23742" lon="4.9205">
        <ele>511</ele>
        <time>2018-03-20T16:01:37Z</time>
      </trkpt>
      <trkpt lat="47.23734" lon="4.92042">
        <ele>510.6</ele>
        <time>2018-03-20T16:01:45Z</time>
      </trkpt>
      <trkpt lat="47.23726" lon="4.92032">
        <ele>510.1</ele>
        <time>2018-03-20T16:01:52Z</time>
      </trkpt>
      <trkpt lat="47.23718" lon="4.92025">
        <ele>509.7</ele>
        <time>2018-03-20T16:02:00Z</time>
      </trkpt>
      <trkpt lat="47.23709" lon="4.92018">
        <ele>509.1</ele>
        <time>2018-03-20T16:02:08Z</time>
      </trkpt>
      <trkpt lat="47.23701" lon="4.9201">
        <ele>508.6</ele>
        <time>2018-03-20T16:02:20Z</time>
      </trkpt>
      <trkpt lat="47.23692" lon="4.92005">
        <ele>508.1</ele>
        <time>2018-03-20T16:02:29Z</time>
      </trkpt>
      <trkpt lat="47.23683" lon="4.91997">
        <ele>507.5</ele>
        <time>2018-03-20T16:02:38Z</time>
      </trkpt>
      <trkpt lat="47.23677" lon="4.91987">
        <ele>507.1</ele>
        <time>2018-03-20T16:02:47Z</time>
      </trkpt>
      <trkpt lat="47.2367" lon="4.91978">
        <ele>506.6</ele>
        <time>2018-03-20T16:02:55Z</time>
      </trkpt>
      <trkpt lat="47.23661" lon="4.9197">
        <ele>506</ele>
        <time>2018-03-20T16:03:05Z</time>
      </trkpt>
      <trkpt lat="47.23654" lon="4.91962">
        <ele>505.4</ele>
        <time>2018-03-20T16:03:13Z</time>
      </trkpt>
      <trkpt lat="47.23645" lon="4.91954">
        <ele>504.7</ele>
        <time>2018-03-20T16:03:21Z</time>
      </trkpt>
      <trkpt lat="47.23638" lon="4.91945">
        <ele>503.9</ele>
        <time>2018-03-20T16:03:28Z</time>
      </trkpt>
      <trkpt lat="47.23632" lon="4.91931">
        <ele>503.1</ele>
        <time>2018-03-20T16:03:36Z</time>
      </trkpt>
      <trkpt lat="47.23626" lon="4.91922">
        <ele>502.3</ele>
        <time>2018-03-20T16:03:44Z</time>
      </trkpt>
      <trkpt lat="47.2362" lon="4.91911">
        <ele>501.5</ele>
        <time>2018-03-20T16:03:52Z</time>
      </trkpt>
      <trkpt lat="47.23615" lon="4.919">
        <ele>500.9</ele>
        <time>2018-03-20T16:03:59Z</time>
      </trkpt>
      <trkpt lat="47.23608" lon="4.9189">
        <ele>500.2</ele>
        <time>2018-03-20T16:04:09Z</time>
      </trkpt>
      <trkpt lat="47.23604" lon="4.91878">
        <ele>499.7</ele>
        <time>2018-03-20T16:04:19Z</time>
      </trkpt>
      <trkpt lat="47.23598" lon="4.91868">
        <ele>498.9</ele>
        <time>2018-03-20T16:04:28Z</time>
      </trkpt>
      <trkpt lat="47.2359" lon="4.91858">
        <ele>498.1</ele>
        <time>2018-03-20T16:04:36Z</time>
      </trkpt>
      <trkpt lat="47.23584" lon="4.91847">
        <ele>497.4</ele>
        <time>2018-03-20T16:04:46Z</time>
      </trkpt>
      <trkpt lat="47.23578" lon="4.91837">
        <ele>496.7</ele>
        <time>2018-03-20T16:04:58Z</time>
      </trkpt>
      <trkpt lat="47.23573" lon="4.91825">
        <ele>495.9</ele>
        <time>2018-03-20T16:05:04Z</time>
      </trkpt>
      <trkpt lat="47.23567" lon="4.91814">
        <ele>495.1</ele>
        <time>2018-03-20T16:05:12Z</time>
      </trkpt>
      <trkpt lat="47.23558" lon="4.91806">
        <ele>494.1</ele>
        <time>2018-03-20T16:05:20Z</time>
      </trkpt>
      <trkpt lat="47.23551" lon="4.91796">
        <ele>493.1</ele>
        <time>2018-03-20T16:05:29Z</time>
      </trkpt>
      <trkpt lat="47.23544" lon="4.91786">
        <ele>492.2</ele>
        <time>2018-03-20T16:05:39Z</time>
      </trkpt>
      <trkpt lat="47.23538" lon="4.91774">
        <ele>491.2</ele>
        <time>2018-03-20T16:05:49Z</time>
      </trkpt>
      <trkpt lat="47.23533" lon="4.91764">
        <ele>490.3</ele>
        <time>2018-03-20T16:06:00Z</time>
      </trkpt>
      <trkpt lat="47.23525" lon="4.91754">
        <ele>489.3</ele>
        <time>2018-03-20T16:06:07Z</time>
      </trkpt>
      <trkpt lat="47.23519" lon="4.91743">
        <ele>488.5</ele>
        <time>2018-03-20T16:06:15Z</time>
      </trkpt>
      <trkpt lat="47.23514" lon="4.91732">
        <ele>487.7</ele>
        <time>2018-03-20T16:06:20Z</time>
      </trkpt>
      <trkpt lat="47.23509" lon="4.9172">
        <ele>487</ele>
        <time>2018-03-20T16:06:29Z</time>
      </trkpt>
      <trkpt lat="47.23503" lon="4.91709">
        <ele>486.2</ele>
        <time>2018-03-20T16:06:38Z</time>
      </trkpt>
      <trkpt lat="47.23495" lon="4.91701">
        <ele>485.8</ele>
        <time>2018-03-20T16:06:48Z</time>
      </trkpt>
      <trkpt lat="47.2349" lon="4.91689">
        <ele>485.6</ele>
        <time>2018-03-20T16:06:57Z</time>
      </trkpt>
      <trkpt lat="47.23484" lon="4.91678">
        <ele>485.3</ele>
        <time>2018-03-20T16:07:06Z</time>
      </trkpt>
      <trkpt lat="47.23476" lon="4.91668">
        <ele>485</ele>
        <time>2018-03-20T16:07:13Z</time>
      </trkpt>
      <trkpt lat="47.2347" lon="4.91658">
        <ele>484.9</ele>
        <time>2018-03-20T16:07:21Z</time>
      </trkpt>
      <trkpt lat="47.23461" lon="4.91649">
        <ele>484.8</ele>
        <time>2018-03-20T16:07:28Z</time>
      </trkpt>
      <trkpt lat="47.23457" lon="4.91637">
        <ele>484.6</ele>
        <time>2018-03-20T16:07:35Z</time>
      </trkpt>
      <trkpt lat="47.23452" lon="4.91625">
        <ele>484.5</ele>
        <time>2018-03-20T16:07:43Z</time>
      </trkpt>
      <trkpt lat="47.23445" lon="4.91615">
        <ele>484.4</ele>
        <time>2018-03-20T16:07:53Z</time>
      </trkpt>
      <trkpt lat="47.23438" lon="4.91606">
        <ele>484.3</ele>
        <time>2018-03-20T16:08:02Z</time>
      </trkpt>
      <trkpt lat="47.23432" lon="4.91596">
        <ele>484.2</ele>
        <time>2018-03-20T16:08:08Z</time>
      </trkpt>
      <trkpt lat="47.23425" lon="4.91587">
        <ele>484</ele>
        <time>2018-03-20T16:08:16Z</time>
      </trkpt>
      <trkpt lat="47.23419" lon="4.91577">
        <ele>484.2</ele>
        <time>2018-03-20T16:08:25Z</time>
      </trkpt>
      <trkpt lat="47.23412" lon="4.91568">
        <ele>484.8</ele>
        <time>2018-03-20T16:08:34Z</time>
      </trkpt>
      <trkpt lat="47.23406" lon="4.91556">
        <ele>485.5</ele>
        <time>2018-03-20T16:08:42Z</time>
      </trkpt>
      <trkpt lat="47.23401" lon="4.91543">
        <ele>486</ele>
        <time>2018-03-20T16:08:50Z</time>
      </trkpt>
      <trkpt lat="47.23397" lon="4.9153">
        <ele>486.4</ele>
        <time>2018-03-20T16:08:58Z</time>
      </trkpt>
      <trkpt lat="47.23392" lon="4.91518">
        <ele>486.8</ele>
        <time>2018-03-20T16:09:05Z</time>
      </trkpt>
      <trkpt lat="47.23389" lon="4.91505">
        <ele>487</ele>
        <time>2018-03-20T16:09:12Z</time>
      </trkpt>
      <trkpt lat="47.23385" lon="4.91493">
        <ele>487.2</ele>
        <time>2018-03-20T16:09:21Z</time>
      </trkpt>
      <trkpt lat="47.23381" lon="4.91481">
        <ele>487.6</ele>
        <time>2018-03-20T16:09:29Z</time>
      </trkpt>
      <trkpt lat="47.23377" lon="4.91467">
        <ele>487.9</ele>
        <time>2018-03-20T16:09:37Z</time>
      </trkpt>
      <trkpt lat="47.23373" lon="4.91453">
        <ele>488.1</ele>
        <time>2018-03-20T16:09:44Z</time>
      </trkpt>
      <trkpt lat="47.2337" lon="4.91439">
        <ele>488.3</ele>
        <time>2018-03-20T16:09:53Z</time>
      </trkpt>
      <trkpt lat="47.23365" lon="4.91427">
        <ele>488.5</ele>
        <time>2018-03-20T16:10:01Z</time>
      </trkpt>
      <trkpt lat="47.23361" lon="4.91415">
        <ele>488.7</ele>
        <time>2018-03-20T16:10:10Z</time>
      </trkpt>
      <trkpt lat="47.23357" lon="4.91403">
        <ele>489</ele>
        <time>2018-03-20T16:10:20Z</time>
      </trkpt>
      <trkpt lat="47.2335" lon="4.91392">
        <ele>489.2</ele>
        <time>2018-03-20T16:10:28Z</time>
      </trkpt>
      <trkpt lat="47.23343" lon="4.91383">
        <ele>489.4</ele>
        <time>2018-03-20T16:10:36Z</time>
      </trkpt>
      <trkpt lat="47.23335" lon="4.91374">
        <ele>489.5</ele>
        <time>2018-03-20T16:10:44Z</time>
      </trkpt>
      <trkpt lat="47.23328" lon="4.91366">
        <ele>489.7</ele>
        <time>2018-03-20T16:10:51Z</time>
      </trkpt>
      <trkpt lat="47.2332" lon="4.91358">
        <ele>490</ele>
        <time>2018-03-20T16:10:58Z</time>
      </trkpt>
      <trkpt lat="47.23312" lon="4.91349">
        <ele>490.3</ele>
        <time>2018-03-20T16:11:05Z</time>
      </trkpt>
      <trkpt lat="47.23305" lon="4.9134">
        <ele>490.6</ele>
        <time>2018-03-20T16:11:13Z</time>
      </trkpt>
      <trkpt lat="47.23297" lon="4.91332">
        <ele>490.9</ele>
        <time>2018-03-20T16:11:21Z</time>
      </trkpt>
      <trkpt lat="47.23288" lon="4.91324">
        <ele>491.4</ele>
        <time>2018-03-20T16:11:29Z</time>
      </trkpt>
      <trkpt lat="47.23281" lon="4.91315">
        <ele>491.9</ele>
        <time>2018-03-20T16:11:37Z</time>
      </trkpt>
      <trkpt lat="47.23273" lon="4.91307">
        <ele>492.3</ele>
        <time>2018-03-20T16:11:44Z</time>
      </trkpt>
      <trkpt lat="47.23266" lon="4.91299">
        <ele>492.6</ele>
        <time>2018-03-20T16:11:51Z</time>
      </trkpt>
      <trkpt lat="47.23258" lon="4.91289">
        <ele>493</ele>
        <time>2018-03-20T16:11:58Z</time>
      </trkpt>
      <trkpt lat="47.23253" lon="4.91276">
        <ele>493.4</ele>
        <time>2018-03-20T16:12:06Z</time>
      </trkpt>
      <trkpt lat="47.23246" lon="4.91265">
        <ele>493.7</ele>
        <time>2018-03-20T16:12:15Z</time>
      </trkpt>
      <trkpt lat="47.2324" lon="4.91252">
        <ele>494.2</ele>
        <time>2018-03-20T16:12:23Z</time>
      </trkpt>
      <trkpt lat="47.23234" lon="4.9124">
        <ele>495.1</ele>
        <time>2018-03-20T16:12:32Z</time>
      </trkpt>
      <trkpt lat="47.2323" lon="4.91228">
        <ele>496.2</ele>
        <time>2018-03-20T16:12:40Z</time>
      </trkpt>
      <trkpt lat="47.23226" lon="4.91215">
        <ele>497.1</ele>
        <time>2018-03-20T16:12:49Z</time>
      </trkpt>
      <trkpt lat="47.23221" lon="4.91202">
        <ele>498.2</ele>
        <time>2018-03-20T16:12:57Z</time>
      </trkpt>
      <trkpt lat="47.23216" lon="4.91189">
        <ele>499.2</ele>
        <time>2018-03-20T16:13:05Z</time>
      </trkpt>
      <trkpt lat="47.23211" lon="4.91177">
        <ele>500.2</ele>
        <time>2018-03-20T16:13:12Z</time>
      </trkpt>
      <trkpt lat="47.23206" lon="4.91166">
        <ele>501.2</ele>
        <time>2018-03-20T16:13:21Z</time>
      </trkpt>
      <trkpt lat="47.232" lon="4.91155">
        <ele>502.2</ele>
        <time>2018-03-20T16:13:31Z</time>
      </trkpt>
      <trkpt lat="47.23195" lon="4.91143">
        <ele>503.3</ele>
        <time>2018-03-20T16:13:46Z</time>
      </trkpt>
      <trkpt lat="47.23191" lon="4.91131">
        <ele>504.2</ele>
        <time>2018-03-20T16:13:58Z</time>
      </trkpt>
      <trkpt lat="47.23186" lon="4.91118">
        <ele>505.2</ele>
        <time>2018-03-20T16:14:06Z</time>
      </trkpt>
      <trkpt lat="47.23181" lon="4.91106">
        <ele>506</ele>
        <time>2018-03-20T16:14:14Z</time>
      </trkpt>
      <trkpt lat="47.23175" lon="4.91094">
        <ele>506.6</ele>
        <time>2018-03-20T16:14:22Z</time>
      </trkpt>
      <trkpt lat="47.2317" lon="4.91083">
        <ele>507.3</ele>
        <time>2018-03-20T16:14:30Z</time>
      </trkpt>
      <trkpt lat="47.23164" lon="4.91073">
        <ele>508.3</ele>
        <time>2018-03-20T16:14:37Z</time>
      </trkpt>
      <trkpt lat="47.23159" lon="4.91062">
        <ele>509</ele>
        <time>2018-03-20T16:14:45Z</time>
      </trkpt>
      <trkpt lat="47.23154" lon="4.9105">
        <ele>509.7</ele>
        <time>2018-03-20T16:14:52Z</time>
      </trkpt>
      <trkpt lat="47.2315" lon="4.91038">
        <ele>510.5</ele>
        <time>2018-03-20T16:15:01Z</time>
      </trkpt>
      <trkpt lat="47.23145" lon="4.91026">
        <ele>511</ele>
        <time>2018-03-20T16:15:09Z</time>
      </trkpt>
      <trkpt lat="47.2314" lon="4.91013">
        <ele>511.4</ele>
        <time>2018-03-20T16:15:18Z</time>
      </trkpt>
      <trkpt lat="47.23135" lon="4.91">
        <ele>512</ele>
        <time>2018-03-20T16:15:27Z</time>
      </trkpt>
      <trkpt lat="47.23132" lon="4.90987">
        <ele>511.9</ele>
        <time>2018-03-20T16:15:35Z</time>
      </trkpt>
      <trkpt lat="47.23129" lon="4.90974">
        <ele>512</ele>
        <time>2018-03-20T16:15:43Z</time>
      </trkpt>
      <trkpt lat="47.23126" lon="4.9096">
        <ele>512.2</ele>
        <time>2018-03-20T16:15:51Z</time>
      </trkpt>
      <trkpt lat="47.23123" lon="4.90946">
        <ele>512.3</ele>
        <time>2018-03-20T16:15:59Z</time>
      </trkpt>
      <trkpt lat="47.23122" lon="4.90931">
        <ele>512.8</ele>
        <time>2018-03-20T16:16:07Z</time>
      </trkpt>
      <trkpt lat="47.23121" lon="4.90917">
        <ele>513.5</ele>
        <time>2018-03-20T16:16:14Z</time>
      </trkpt>
      <trkpt lat="47.23119" lon="4.90902">
        <ele>513.8</ele>
        <time>2018-03-20T16:16:22Z</time>
      </trkpt>
      <trkpt lat="47.23118" lon="4.90888">
        <ele>514.1</ele>
        <time>2018-03-20T16:16:31Z</time>
      </trkpt>
      <trkpt lat="47.23118" lon="4.90874">
        <ele>514.6</ele>
        <time>2018-03-20T16:16:38Z</time>
      </trkpt>
      <trkpt lat="47.23119" lon="4.90861">
        <ele>515.3</ele>
        <time>2018-03-20T16:16:45Z</time>
      </trkpt>
      <trkpt lat="47.23118" lon="4.90848">
        <ele>515.7</ele>
        <time>2018-03-20T16:16:52Z</time>
      </trkpt>
      <trkpt lat="47.2312" lon="4.90834">
        <ele>516.7</ele>
        <time>2018-03-20T16:17:01Z</time>
      </trkpt>
      <trkpt lat="47.23122" lon="4.9082">
        <ele>516.9</ele>
        <time>2018-03-20T16:20:01Z</time>
      </trkpt>
      <trkpt lat="47.23124" lon="4.90806">
        <ele>517.3</ele>
        <time>2018-03-20T16:20:10Z</time>
      </trkpt>
      <trkpt lat="47.23125" lon="4.90791">
        <ele>517.3</ele>
        <time>2018-03-20T16:20:19Z</time>
      </trkpt>
      <trkpt lat="47.23126" lon="4.90778">
        <ele>517.2</ele>
        <time>2018-03-20T16:20:29Z</time>
      </trkpt>
      <trkpt lat="47.23125" lon="4.90765">
        <ele>516.8</ele>
        <time>2018-03-20T16:20:38Z</time>
      </trkpt>
      <trkpt lat="47.23126" lon="4.90752">
        <ele>516.8</ele>
        <time>2018-03-20T16:20:48Z</time>
      </trkpt>
      <trkpt lat="47.23128" lon="4.90738">
        <ele>516.6</ele>
        <time>2018-03-20T16:20:57Z</time>
      </trkpt>
      <trkpt lat="47.23127" lon="4.90725">
        <ele>515.8</ele>
        <time>2018-03-20T16:21:07Z</time>
      </trkpt>
      <trkpt lat="47.23127" lon="4.90711">
        <ele>515.3</ele>
        <time>2018-03-20T16:21:17Z</time>
      </trkpt>
      <trkpt lat="47.23128" lon="4.90697">
        <ele>514.9</ele>
        <time>2018-03-20T16:21:25Z</time>
      </trkpt>
      <trkpt lat="47.23129" lon="4.90682">
        <ele>514.5</ele>
        <time>2018-03-20T16:21:33Z</time>
      </trkpt>
      <trkpt lat="47.23125" lon="4.90669">
        <ele>513.1</ele>
        <time>2018-03-20T16:21:42Z</time>
      </trkpt>
      <trkpt lat="47.23121" lon="4.90657">
        <ele>511.9</ele>
        <time>2018-03-20T16:21:51Z</time>
      </trkpt>
      <trkpt lat="47.23115" lon="4.90645">
        <ele>510.8</ele>
        <time>2018-03-20T16:22:01Z</time>
      </trkpt>
      <trkpt lat="47.23107" lon="4.90637">
        <ele>509.2</ele>
        <time>2018-03-20T16:22:10Z</time>
      </trkpt>
      <trkpt lat="47.23099" lon="4.90633">
        <ele>507.5</ele>
        <time>2018-03-20T16:22:23Z</time>
      </trkpt>
      <trkpt lat="47.2309" lon="4.90631">
        <ele>505.7</ele>
        <time>2018-03-20T16:22:32Z</time>
      </trkpt>
      <trkpt lat="47.23081" lon="4.90626">
        <ele>504</ele>
        <time>2018-03-20T16:22:42Z</time>
      </trkpt>
      <trkpt lat="47.23076" lon="4.90623">
        <ele>503.1</ele>
        <time>2018-03-20T16:23:09Z</time>
      </trkpt>
    </trkseg>
  </trk>
</gpx>